Darstellungsparameter: Aktuell verwendete Einstellungen:
Skalierung der Graphiken ... ?
xyx+y,   Skalierungsfaktor:      Skalierung: Modus: x, Faktor: 1
Darstellungszeitraum ... ?
Vom - - bis: - -   Zeitraum: 17.03.2014 - 23.03.2014
Min/Max/Avg-Anzeige ... ?
Zeige MMA aktuell
Zeige MMA Monat
Zeige MMA alles
Zeige --A aktuell
Zeige --A Monat
Zeige --A alles
Keine MMA-Anzeige
MMA:
Keine MMA-Graphiken
MMA-Basis: 17.03.2014 - 23.03.2014
Quicknavigation für Darstellung... ?
Tage:      1T, 2T, 3T, 5T -1T -2T -3T -5T +1T +2T +3T +5T
Wochen: 1W, 2W, 3W -1W -2W -3W +1W +2W +3W
Monate: 1M, 3M, 6M -1M -3M -6M +1M +3M +6M
Jahre:    1J, 3J, 5J, 10J -1J -3J -5J -10J +1J +3J +5J +10J
Nutze für die Darstellung ... ?
Originaldaten oder Mittelwerte auf ...
Stundenbasis Tagesbasis Wochenbasis
Monatsbasis Jahresbasis      Datenbasis: Original-Daten
Darstellen als:
Statistik (Auto) Statistik J:M      Darstellung:
Zur Graphik,    zurück zur Übersicht aller Sensoren.
 
Tabellarische Datenbersicht: ?
 
Sensor: Nr:Datum:Temp:Feuchte:Taupunkt:
Aussen-T/F 1 17-03-2014 00:00:00 7.3 C 91 % 5.93 C
2 17-03-2014 00:05:00 7.3 C 90 % 5.77 C
3 17-03-2014 00:10:00 7.3 C 90 % 5.77 C
4 17-03-2014 00:15:00 7.2 C 90 % 5.67 C
5 17-03-2014 00:20:00 7.1 C 90 % 5.57 C
6 17-03-2014 00:25:00 6.9 C 90 % 5.38 C
7 17-03-2014 00:30:00 6.9 C 91 % 5.54 C
8 17-03-2014 00:35:00 6.9 C 92 % 5.69 C
9 17-03-2014 00:40:00 7 C 92 % 5.79 C
10 17-03-2014 00:45:00 7 C 91 % 5.63 C
11 17-03-2014 00:50:00 7.1 C 92 % 5.89 C
12 17-03-2014 00:55:00 7.1 C 92 % 5.89 C
13 17-03-2014 01:00:00 7.1 C 91 % 5.73 C
14 17-03-2014 01:05:00 7.1 C 91 % 5.73 C
15 17-03-2014 01:10:00 7.1 C 91 % 5.73 C
16 17-03-2014 01:15:00 7.1 C 91 % 5.73 C
17 17-03-2014 01:20:00 7.1 C 92 % 5.89 C
18 17-03-2014 01:25:00 7.2 C 92 % 5.99 C
19 17-03-2014 01:30:00 7.1 C 91 % 5.73 C
20 17-03-2014 01:35:00 7.1 C 91 % 5.73 C
21 17-03-2014 01:40:00 7.2 C 92 % 5.99 C
22 17-03-2014 01:45:00 7.2 C 91 % 5.83 C
23 17-03-2014 01:50:00 7.1 C 91 % 5.73 C
24 17-03-2014 01:55:00 7.2 C 91 % 5.83 C
25 17-03-2014 02:00:00 7.1 C 91 % 5.73 C
Sensor: Nr:Datum:Temp:Feuchte:Taupunkt:
Aussen-T/F 26 17-03-2014 02:05:00 7.1 C 91 % 5.73 C
27 17-03-2014 02:10:00 7.1 C 91 % 5.73 C
28 17-03-2014 02:15:00 7.1 C 91 % 5.73 C
29 17-03-2014 02:20:00 7 C 91 % 5.63 C
30 17-03-2014 02:25:00 7 C 92 % 5.79 C
31 17-03-2014 02:30:00 6.9 C 92 % 5.69 C
32 17-03-2014 02:35:00 6.9 C 92 % 5.69 C
33 17-03-2014 02:40:00 7.1 C 92 % 5.89 C
34 17-03-2014 02:45:00 7.2 C 92 % 5.99 C
35 17-03-2014 02:50:00 7.2 C 92 % 5.99 C
36 17-03-2014 02:55:00 7.3 C 92 % 6.09 C
37 17-03-2014 03:00:00 7.3 C 91 % 5.93 C
38 17-03-2014 03:05:00 7.3 C 92 % 6.09 C
39 17-03-2014 03:10:00 7.3 C 92 % 6.09 C
40 17-03-2014 03:15:00 7.4 C 91 % 6.03 C
41 17-03-2014 03:20:00 7.4 C 91 % 6.03 C
42 17-03-2014 03:25:00 7.4 C 91 % 6.03 C
43 17-03-2014 03:30:00 7.5 C 91 % 6.13 C
44 17-03-2014 03:35:00 7.6 C 91 % 6.23 C
45 17-03-2014 03:40:00 7.7 C 91 % 6.33 C
46 17-03-2014 03:45:00 7.6 C 90 % 6.07 C
47 17-03-2014 03:50:00 7.6 C 91 % 6.23 C
48 17-03-2014 03:55:00 7.6 C 91 % 6.23 C
49 17-03-2014 04:00:00 7.5 C 90 % 5.97 C
50 17-03-2014 04:05:00 7.4 C 91 % 6.03 C
Sensor: Nr:Datum:Temp:Feuchte:Taupunkt:
Aussen-T/F 51 17-03-2014 04:10:00 7.5 C 91 % 6.13 C
52 17-03-2014 04:15:00 7.5 C 91 % 6.13 C
53 17-03-2014 04:20:00 7.6 C 91 % 6.23 C
54 17-03-2014 04:25:00 7.8 C 91 % 6.43 C
55 17-03-2014 04:30:00 8.2 C 91 % 6.82 C
56 17-03-2014 04:35:00 8.3 C 89 % 6.6 C
57 17-03-2014 04:40:00 8.4 C 89 % 6.7 C
58 17-03-2014 04:45:00 8.4 C 88 % 6.53 C
59 17-03-2014 04:50:00 8.2 C 88 % 6.33 C
60 17-03-2014 04:55:00 8.1 C 89 % 6.4 C
61 17-03-2014 05:00:00 8.2 C 89 % 6.5 C
62 17-03-2014 05:05:00 8.2 C 89 % 6.5 C
63 17-03-2014 05:10:00 8.2 C 89 % 6.5 C
64 17-03-2014 05:15:00 8.2 C 89 % 6.5 C
65 17-03-2014 05:20:00 8.2 C 89 % 6.5 C
66 17-03-2014 05:25:00 8.2 C 89 % 6.5 C
67 17-03-2014 05:30:00 8.2 C 89 % 6.5 C
68 17-03-2014 05:35:00 8.2 C 89 % 6.5 C
69 17-03-2014 05:40:00 8.3 C 89 % 6.6 C
70 17-03-2014 05:45:00 8.3 C 89 % 6.6 C
71 17-03-2014 05:50:00 8.3 C 89 % 6.6 C
72 17-03-2014 05:55:00 8.3 C 89 % 6.6 C
73 17-03-2014 06:00:00 8.3 C 89 % 6.6 C
74 17-03-2014 06:05:00 8.3 C 89 % 6.6 C
75 17-03-2014 06:10:00 8.3 C 89 % 6.6 C
Sensor: Nr:Datum:Temp:Feuchte:Taupunkt:
Aussen-T/F 76 17-03-2014 06:15:00 8.3 C 89 % 6.6 C
77 17-03-2014 06:20:00 8.3 C 89 % 6.6 C
78 17-03-2014 06:25:00 8.2 C 89 % 6.5 C
79 17-03-2014 06:30:00 8.3 C 89 % 6.6 C
80 17-03-2014 06:35:00 8.3 C 89 % 6.6 C
81 17-03-2014 06:40:00 8.3 C 89 % 6.6 C
82 17-03-2014 06:45:00 8.3 C 89 % 6.6 C
83 17-03-2014 06:50:00 8.4 C 89 % 6.7 C
84 17-03-2014 06:55:00 8.5 C 89 % 6.79 C
85 17-03-2014 07:00:00 8.6 C 88 % 6.73 C
86 17-03-2014 07:05:00 8.6 C 88 % 6.73 C
87 17-03-2014 07:10:00 8.6 C 88 % 6.73 C
88 17-03-2014 07:15:00 8.6 C 88 % 6.73 C
89 17-03-2014 07:20:00 8.7 C 88 % 6.83 C
90 17-03-2014 07:25:00 8.8 C 88 % 6.93 C
91 17-03-2014 07:30:00 8.8 C 88 % 6.93 C
92 17-03-2014 07:35:00 8.8 C 88 % 6.93 C
93 17-03-2014 07:40:00 8.8 C 88 % 6.93 C
94 17-03-2014 07:45:00 8.8 C 88 % 6.93 C
95 17-03-2014 07:50:00 8.8 C 88 % 6.93 C
96 17-03-2014 07:55:00 8.9 C 88 % 7.02 C
97 17-03-2014 08:00:00 8.9 C 88 % 7.02 C
98 17-03-2014 08:05:00 9 C 88 % 7.12 C
99 17-03-2014 08:10:00 9.1 C 87 % 7.05 C
100 17-03-2014 08:15:00 9.2 C 87 % 7.15 C
Sensor: Nr:Datum:Temp:Feuchte:Taupunkt:
Aussen-T/F 101 17-03-2014 08:20:00 9.2 C 87 % 7.15 C
102 17-03-2014 08:25:00 9.2 C 87 % 7.15 C
103 17-03-2014 08:30:00 9.3 C 87 % 7.25 C
104 17-03-2014 08:35:00 9.3 C 87 % 7.25 C
105 17-03-2014 08:40:00 9.3 C 87 % 7.25 C
106 17-03-2014 08:45:00 9.3 C 87 % 7.25 C
107 17-03-2014 08:50:00 9.4 C 86 % 7.18 C
108 17-03-2014 08:55:00 9.5 C 86 % 7.28 C
109 17-03-2014 09:00:00 9.5 C 86 % 7.28 C
110 17-03-2014 09:05:00 9.6 C 86 % 7.38 C
111 17-03-2014 09:10:00 9.7 C 86 % 7.47 C
112 17-03-2014 09:15:00 9.7 C 86 % 7.47 C
113 17-03-2014 09:20:00 9.8 C 85 % 7.4 C
114 17-03-2014 09:25:00 9.9 C 85 % 7.5 C
115 17-03-2014 09:30:00 10 C 85 % 7.6 C
116 17-03-2014 09:35:00 10.1 C 85 % 7.7 C
117 17-03-2014 09:40:00 10.3 C 84 % 7.72 C
118 17-03-2014 09:45:00 10.3 C 84 % 7.72 C
119 17-03-2014 09:50:00 10.5 C 84 % 7.91 C
120 17-03-2014 09:55:00 10.6 C 83 % 7.84 C
121 17-03-2014 10:00:00 10.7 C 82 % 7.76 C
122 17-03-2014 10:05:00 10.8 C 82 % 7.85 C
123 17-03-2014 10:10:00 10.9 C 82 % 7.95 C
124 17-03-2014 10:15:00 11 C 82 % 8.05 C
125 17-03-2014 10:20:00 11.1 C 82 % 8.15 C
Sensor: Nr:Datum:Temp:Feuchte:Taupunkt:
Aussen-T/F 126 17-03-2014 10:25:00 11.1 C 81 % 7.97 C
127 17-03-2014 10:30:00 11.2 C 81 % 8.06 C
128 17-03-2014 10:35:00 11.2 C 81 % 8.06 C
129 17-03-2014 10:40:00 11.3 C 80 % 7.98 C
130 17-03-2014 10:45:00 11.4 C 80 % 8.08 C
131 17-03-2014 10:50:00 11.4 C 80 % 8.08 C
132 17-03-2014 10:55:00 11.4 C 79 % 7.89 C
133 17-03-2014 11:00:00 11.5 C 80 % 8.17 C
134 17-03-2014 11:05:00 11.6 C 79 % 8.09 C
135 17-03-2014 11:10:00 11.6 C 79 % 8.09 C
136 17-03-2014 11:15:00 11.6 C 79 % 8.09 C
137 17-03-2014 11:20:00 11.7 C 79 % 8.18 C
138 17-03-2014 11:25:00 11.8 C 78 % 8.09 C
139 17-03-2014 11:30:00 11.9 C 78 % 8.19 C
140 17-03-2014 11:35:00 12.1 C 77 % 8.2 C
141 17-03-2014 11:40:00 12.1 C 77 % 8.2 C
142 17-03-2014 11:45:00 12.2 C 77 % 8.29 C
143 17-03-2014 11:50:00 12.3 C 77 % 8.39 C
144 17-03-2014 11:55:00 12.4 C 76 % 8.29 C
145 17-03-2014 12:00:00 12.5 C 76 % 8.39 C
146 17-03-2014 12:05:00 12.6 C 76 % 8.49 C
147 17-03-2014 12:10:00 12.6 C 76 % 8.49 C
148 17-03-2014 12:15:00 12.7 C 76 % 8.58 C
149 17-03-2014 12:20:00 12.7 C 75 % 8.39 C
150 17-03-2014 12:25:00 12.7 C 75 % 8.39 C
Sensor: Nr:Datum:Temp:Feuchte:Taupunkt:
Aussen-T/F 151 17-03-2014 12:30:00 12.7 C 75 % 8.39 C
152 17-03-2014 12:35:00 12.7 C 75 % 8.39 C
153 17-03-2014 12:40:00 12.7 C 75 % 8.39 C
154 17-03-2014 12:45:00 12.7 C 75 % 8.39 C
155 17-03-2014 12:50:00 12.7 C 75 % 8.39 C
156 17-03-2014 12:55:00 12.7 C 75 % 8.39 C
157 17-03-2014 13:00:00 12.7 C 75 % 8.39 C
158 17-03-2014 13:05:00 12.8 C 75 % 8.48 C
159 17-03-2014 13:10:00 12.8 C 75 % 8.48 C
160 17-03-2014 13:15:00 12.8 C 75 % 8.48 C
161 17-03-2014 13:20:00 12.8 C 76 % 8.68 C
162 17-03-2014 13:25:00 12.9 C 76 % 8.78 C
163 17-03-2014 13:30:00 13.1 C 75 % 8.77 C
164 17-03-2014 13:35:00 13.2 C 76 % 9.07 C
165 17-03-2014 13:40:00 13.3 C 75 % 8.97 C
166 17-03-2014 13:45:00 13.3 C 74 % 8.77 C
167 17-03-2014 13:50:00 13.4 C 74 % 8.87 C
168 17-03-2014 13:55:00 13.5 C 74 % 8.96 C
169 17-03-2014 14:00:00 13.6 C 73 % 8.86 C
170 17-03-2014 14:05:00 13.7 C 72 % 8.75 C
171 17-03-2014 14:10:00 13.8 C 73 % 9.05 C
172 17-03-2014 14:15:00 13.8 C 71 % 8.64 C
173 17-03-2014 14:20:00 13.8 C 70 % 8.43 C
174 17-03-2014 14:25:00 13.8 C 71 % 8.64 C
175 17-03-2014 14:30:00 13.8 C 71 % 8.64 C
Sensor: Nr:Datum:Temp:Feuchte:Taupunkt:
Aussen-T/F 176 17-03-2014 14:35:00 13.8 C 71 % 8.64 C
177 17-03-2014 14:40:00 13.9 C 71 % 8.73 C
178 17-03-2014 14:45:00 14.1 C 69 % 8.5 C
179 17-03-2014 14:50:00 13.9 C 69 % 8.31 C
180 17-03-2014 14:55:00 14.1 C 69 % 8.5 C
181 17-03-2014 15:00:00 14.1 C 69 % 8.5 C
182 17-03-2014 15:05:00 14.2 C 69 % 8.6 C
183 17-03-2014 15:10:00 14.1 C 68 % 8.29 C
184 17-03-2014 15:15:00 13.9 C 69 % 8.31 C
185 17-03-2014 15:20:00 13.8 C 69 % 8.22 C
186 17-03-2014 15:25:00 13.8 C 68 % 8 C
187 17-03-2014 15:30:00 13.6 C 69 % 8.03 C
188 17-03-2014 15:35:00 13.6 C 70 % 8.24 C
189 17-03-2014 15:40:00 13.5 C 69 % 7.93 C
190 17-03-2014 15:45:00 13.4 C 69 % 7.84 C
191 17-03-2014 15:50:00 13.4 C 69 % 7.84 C
192 17-03-2014 15:55:00 13.3 C 70 % 7.95 C
193 17-03-2014 16:00:00 13.3 C 70 % 7.95 C
194 17-03-2014 16:05:00 13.2 C 69 % 7.64 C
195 17-03-2014 16:10:00 13.2 C 69 % 7.64 C
196 17-03-2014 16:15:00 13.1 C 69 % 7.55 C
197 17-03-2014 16:20:00 13.1 C 69 % 7.55 C
198 17-03-2014 16:25:00 13.1 C 69 % 7.55 C
199 17-03-2014 16:30:00 13.1 C 70 % 7.76 C
200 17-03-2014 16:35:00 13.1 C 69 % 7.55 C
Sensor: Nr:Datum:Temp:Feuchte:Taupunkt:
Aussen-T/F 201 17-03-2014 16:40:00 13.1 C 70 % 7.76 C
202 17-03-2014 16:45:00 13.1 C 69 % 7.55 C
203 17-03-2014 16:50:00 13.1 C 69 % 7.55 C
204 17-03-2014 16:55:00 13.1 C 69 % 7.55 C
205 17-03-2014 17:00:00 13.1 C 69 % 7.55 C
206 17-03-2014 17:05:00 13 C 69 % 7.45 C
207 17-03-2014 17:10:00 13 C 69 % 7.45 C
208 17-03-2014 17:15:00 12.9 C 70 % 7.57 C
209 17-03-2014 17:20:00 12.9 C 69 % 7.36 C
210 17-03-2014 17:25:00 12.9 C 70 % 7.57 C
211 17-03-2014 17:30:00 12.8 C 69 % 7.26 C
212 17-03-2014 17:35:00 12.8 C 70 % 7.47 C
213 17-03-2014 17:40:00 12.8 C 70 % 7.47 C
214 17-03-2014 17:45:00 12.8 C 70 % 7.47 C
215 17-03-2014 17:50:00 12.8 C 70 % 7.47 C
216 17-03-2014 17:55:00 12.7 C 70 % 7.38 C
217 17-03-2014 18:00:00 12.7 C 70 % 7.38 C
218 17-03-2014 18:05:00 12.6 C 71 % 7.49 C
219 17-03-2014 18:10:00 12.5 C 71 % 7.39 C
220 17-03-2014 18:15:00 12.4 C 71 % 7.3 C
221 17-03-2014 18:20:00 12.3 C 71 % 7.2 C
222 17-03-2014 18:25:00 12.3 C 72 % 7.4 C
223 17-03-2014 18:30:00 12.3 C 72 % 7.4 C
224 17-03-2014 18:35:00 12.2 C 72 % 7.31 C
225 17-03-2014 18:40:00 12.1 C 72 % 7.21 C
Sensor: Nr:Datum:Temp:Feuchte:Taupunkt:
Aussen-T/F 226 17-03-2014 18:45:00 12.1 C 72 % 7.21 C
227 17-03-2014 18:50:00 12 C 73 % 7.32 C
228 17-03-2014 18:55:00 11.9 C 73 % 7.22 C
229 17-03-2014 19:00:00 11.9 C 73 % 7.22 C
230 17-03-2014 19:05:00 11.8 C 74 % 7.32 C
231 17-03-2014 19:10:00 11.7 C 74 % 7.23 C
232 17-03-2014 19:15:00 11.6 C 74 % 7.13 C
233 17-03-2014 19:20:00 11.5 C 74 % 7.03 C
234 17-03-2014 19:25:00 11.2 C 76 % 7.13 C
235 17-03-2014 19:30:00 11 C 77 % 7.13 C
236 17-03-2014 19:35:00 10.8 C 77 % 6.94 C
237 17-03-2014 19:40:00 10.8 C 78 % 7.12 C
238 17-03-2014 19:45:00 10.8 C 77 % 6.94 C
239 17-03-2014 19:50:00 10.8 C 77 % 6.94 C
240 17-03-2014 19:55:00 10.8 C 79 % 7.31 C
241 17-03-2014 20:00:00 10.7 C 79 % 7.21 C
242 17-03-2014 20:05:00 10.6 C 79 % 7.11 C
243 17-03-2014 20:10:00 10.5 C 79 % 7.02 C
244 17-03-2014 20:15:00 10.3 C 80 % 7.01 C
245 17-03-2014 20:20:00 10.2 C 80 % 6.91 C
246 17-03-2014 20:25:00 10.2 C 81 % 7.09 C
247 17-03-2014 20:30:00 10.2 C 81 % 7.09 C
248 17-03-2014 20:35:00 10.2 C 81 % 7.09 C
249 17-03-2014 20:40:00 10.3 C 80 % 7.01 C
250 17-03-2014 20:45:00 10.4 C 79 % 6.92 C
Sensor: Nr:Datum:Temp:Feuchte:Taupunkt:
Aussen-T/F 251 17-03-2014 20:50:00 10.3 C 80 % 7.01 C
252 17-03-2014 20:55:00 10.2 C 81 % 7.09 C
253 17-03-2014 21:00:00 10.1 C 81 % 6.99 C
254 17-03-2014 21:05:00 10 C 82 % 7.07 C
255 17-03-2014 21:10:00 9.9 C 83 % 7.15 C
256 17-03-2014 21:15:00 9.8 C 83 % 7.05 C
257 17-03-2014 21:20:00 9.8 C 84 % 7.23 C
258 17-03-2014 21:25:00 9.9 C 84 % 7.33 C
259 17-03-2014 21:30:00 9.8 C 84 % 7.23 C
260 17-03-2014 21:35:00 9.8 C 83 % 7.05 C
261 17-03-2014 21:40:00 9.8 C 83 % 7.05 C
262 17-03-2014 21:45:00 9.8 C 82 % 6.88 C
263 17-03-2014 21:50:00 9.8 C 82 % 6.88 C
264 17-03-2014 21:55:00 9.8 C 83 % 7.05 C
265 17-03-2014 22:00:00 9.7 C 84 % 7.13 C
266 17-03-2014 22:05:00 9.7 C 84 % 7.13 C
267 17-03-2014 22:10:00 9.7 C 83 % 6.96 C
268 17-03-2014 22:15:00 9.8 C 83 % 7.05 C
269 17-03-2014 22:20:00 9.8 C 83 % 7.05 C
270 17-03-2014 22:25:00 9.8 C 83 % 7.05 C
271 17-03-2014 22:30:00 9.8 C 83 % 7.05 C
272 17-03-2014 22:35:00 9.8 C 83 % 7.05 C
273 17-03-2014 22:40:00 9.8 C 83 % 7.05 C
274 17-03-2014 22:45:00 9.8 C 83 % 7.05 C
275 17-03-2014 22:50:00 9.7 C 83 % 6.96 C
Sensor: Nr:Datum:Temp:Feuchte:Taupunkt:
Aussen-T/F 276 17-03-2014 22:55:00 9.7 C 83 % 6.96 C
277 17-03-2014 23:00:00 9.7 C 83 % 6.96 C
278 17-03-2014 23:05:00 9.7 C 83 % 6.96 C
279 17-03-2014 23:10:00 9.8 C 83 % 7.05 C
280 17-03-2014 23:15:00 9.8 C 83 % 7.05 C
281 17-03-2014 23:20:00 9.8 C 83 % 7.05 C
282 17-03-2014 23:25:00 9.8 C 83 % 7.05 C
283 17-03-2014 23:30:00 9.7 C 83 % 6.96 C
284 17-03-2014 23:35:00 9.7 C 83 % 6.96 C
285 17-03-2014 23:40:00 9.7 C 83 % 6.96 C
286 17-03-2014 23:45:00 9.7 C 83 % 6.96 C
287 17-03-2014 23:50:00 9.6 C 83 % 6.86 C
288 17-03-2014 23:55:00 9.5 C 83 % 6.76 C
289 18-03-2014 00:00:00 9.3 C 84 % 6.74 C
290 18-03-2014 00:05:00 9.1 C 84 % 6.54 C
291 18-03-2014 00:10:00 8.8 C 85 % 6.42 C
292 18-03-2014 00:15:00 8.7 C 86 % 6.49 C
293 18-03-2014 00:20:00 8.6 C 85 % 6.23 C
294 18-03-2014 00:25:00 8.3 C 86 % 6.1 C
295 18-03-2014 00:30:00 8.1 C 86 % 5.9 C
296 18-03-2014 00:35:00 8 C 87 % 5.97 C
297 18-03-2014 00:40:00 7.9 C 87 % 5.87 C
298 18-03-2014 00:45:00 7.9 C 88 % 6.04 C
299 18-03-2014 00:50:00 7.9 C 89 % 6.2 C
300 18-03-2014 00:55:00 7.9 C 89 % 6.2 C
Sensor: Nr:Datum:Temp:Feuchte:Taupunkt:
Aussen-T/F 301 18-03-2014 01:00:00 8.1 C 89 % 6.4 C
302 18-03-2014 01:05:00 8.1 C 89 % 6.4 C
303 18-03-2014 01:10:00 8.2 C 89 % 6.5 C
304 18-03-2014 01:15:00 8.2 C 88 % 6.33 C
305 18-03-2014 01:20:00 8.3 C 88 % 6.43 C
306 18-03-2014 01:25:00 8.3 C 88 % 6.43 C
307 18-03-2014 01:30:00 8.4 C 88 % 6.53 C
308 18-03-2014 01:35:00 8.4 C 88 % 6.53 C
309 18-03-2014 01:40:00 8.4 C 88 % 6.53 C
310 18-03-2014 01:45:00 8.4 C 88 % 6.53 C
311 18-03-2014 01:50:00 8.4 C 88 % 6.53 C
312 18-03-2014 01:55:00 8.4 C 88 % 6.53 C
313 18-03-2014 02:00:00 8.5 C 88 % 6.63 C
314 18-03-2014 02:05:00 8.5 C 88 % 6.63 C
315 18-03-2014 02:10:00 8.5 C 88 % 6.63 C
316 18-03-2014 02:15:00 8.6 C 87 % 6.56 C
317 18-03-2014 02:20:00 8.7 C 87 % 6.66 C
318 18-03-2014 02:25:00 8.8 C 87 % 6.76 C
319 18-03-2014 02:30:00 8.8 C 86 % 6.59 C
320 18-03-2014 02:35:00 8.8 C 86 % 6.59 C
321 18-03-2014 02:40:00 8.8 C 86 % 6.59 C
322 18-03-2014 02:45:00 8.8 C 86 % 6.59 C
323 18-03-2014 02:50:00 8.8 C 86 % 6.59 C
324 18-03-2014 02:55:00 8.7 C 87 % 6.66 C
325 18-03-2014 03:00:00 8.6 C 87 % 6.56 C
Sensor: Nr:Datum:Temp:Feuchte:Taupunkt:
Aussen-T/F 326 18-03-2014 03:05:00 8.6 C 87 % 6.56 C
327 18-03-2014 03:10:00 8.6 C 87 % 6.56 C
328 18-03-2014 03:15:00 8.6 C 87 % 6.56 C
329 18-03-2014 03:20:00 8.6 C 87 % 6.56 C
330 18-03-2014 03:25:00 8.6 C 87 % 6.56 C
331 18-03-2014 03:30:00 8.6 C 87 % 6.56 C
332 18-03-2014 03:35:00 8.7 C 87 % 6.66 C
333 18-03-2014 03:40:00 8.6 C 87 % 6.56 C
334 18-03-2014 03:45:00 8.5 C 86 % 6.3 C
335 18-03-2014 03:50:00 8.3 C 87 % 6.27 C
336 18-03-2014 03:55:00 8.2 C 87 % 6.17 C
337 18-03-2014 04:00:00 8 C 87 % 5.97 C
338 18-03-2014 04:05:00 7.8 C 88 % 5.94 C
339 18-03-2014 04:10:00 7.7 C 88 % 5.84 C
340 18-03-2014 04:15:00 7.7 C 88 % 5.84 C
341 18-03-2014 04:20:00 7.7 C 89 % 6 C
342 18-03-2014 04:25:00 7.7 C 89 % 6 C
343 18-03-2014 04:30:00 7.7 C 89 % 6 C
344 18-03-2014 04:35:00 7.7 C 90 % 6.17 C
345 18-03-2014 04:40:00 7.7 C 90 % 6.17 C
346 18-03-2014 04:45:00 7.7 C 90 % 6.17 C
347 18-03-2014 04:50:00 7.7 C 89 % 6 C
348 18-03-2014 04:55:00 7.7 C 89 % 6 C
349 18-03-2014 05:00:00 7.6 C 89 % 5.91 C
350 18-03-2014 05:05:00 7.6 C 89 % 5.91 C
Sensor: Nr:Datum:Temp:Feuchte:Taupunkt:
Aussen-T/F 351 18-03-2014 05:10:00 7.6 C 90 % 6.07 C
352 18-03-2014 05:15:00 7.7 C 90 % 6.17 C
353 18-03-2014 05:20:00 7.7 C 89 % 6 C
354 18-03-2014 05:25:00 7.7 C 89 % 6 C
355 18-03-2014 05:30:00 7.6 C 89 % 5.91 C
356 18-03-2014 05:35:00 7.5 C 89 % 5.81 C
357 18-03-2014 05:40:00 7.4 C 90 % 5.87 C
358 18-03-2014 05:45:00 7.3 C 90 % 5.77 C
359 18-03-2014 05:50:00 7.3 C 90 % 5.77 C
360 18-03-2014 05:55:00 7.4 C 90 % 5.87 C
361 18-03-2014 06:00:00 7.4 C 90 % 5.87 C
362 18-03-2014 06:05:00 7.4 C 90 % 5.87 C
363 18-03-2014 06:10:00 7.5 C 90 % 5.97 C
364 18-03-2014 06:15:00 7.6 C 90 % 6.07 C
365 18-03-2014 06:20:00 7.6 C 90 % 6.07 C
366 18-03-2014 06:25:00 7.7 C 90 % 6.17 C
367 18-03-2014 06:30:00 7.8 C 90 % 6.27 C
368 18-03-2014 06:35:00 7.8 C 90 % 6.27 C
369 18-03-2014 06:40:00 7.8 C 90 % 6.27 C
370 18-03-2014 06:45:00 7.8 C 90 % 6.27 C
371 18-03-2014 06:50:00 7.8 C 90 % 6.27 C
372 18-03-2014 06:55:00 7.7 C 90 % 6.17 C
373 18-03-2014 07:00:00 7.7 C 90 % 6.17 C
374 18-03-2014 07:05:00 7.7 C 90 % 6.17 C
375 18-03-2014 07:10:00 7.7 C 91 % 6.33 C
Sensor: Nr:Datum:Temp:Feuchte:Taupunkt:
Aussen-T/F 376 18-03-2014 07:15:00 7.8 C 91 % 6.43 C
377 18-03-2014 07:20:00 7.9 C 91 % 6.52 C
378 18-03-2014 07:25:00 7.9 C 91 % 6.52 C
379 18-03-2014 07:30:00 8 C 91 % 6.62 C
380 18-03-2014 07:35:00 8.1 C 91 % 6.72 C
381 18-03-2014 07:40:00 8.2 C 90 % 6.66 C
382 18-03-2014 07:45:00 8.2 C 90 % 6.66 C
383 18-03-2014 07:50:00 8.3 C 90 % 6.76 C
384 18-03-2014 07:55:00 8.3 C 90 % 6.76 C
385 18-03-2014 08:00:00 8.4 C 89 % 6.7 C
386 18-03-2014 08:05:00 8.4 C 89 % 6.7 C
387 18-03-2014 08:10:00 8.5 C 89 % 6.79 C
388 18-03-2014 08:15:00 8.5 C 89 % 6.79 C
389 18-03-2014 08:20:00 8.6 C 89 % 6.89 C
390 18-03-2014 08:25:00 8.6 C 90 % 7.06 C
391 18-03-2014 08:30:00 8.6 C 89 % 6.89 C
392 18-03-2014 08:35:00 8.6 C 89 % 6.89 C
393 18-03-2014 08:40:00 8.6 C 89 % 6.89 C
394 18-03-2014 08:45:00 8.6 C 89 % 6.89 C
395 18-03-2014 08:50:00 8.4 C 89 % 6.7 C
396 18-03-2014 08:55:00 8.4 C 90 % 6.86 C
397 18-03-2014 09:00:00 8.4 C 90 % 6.86 C
398 18-03-2014 09:05:00 8.4 C 90 % 6.86 C
399 18-03-2014 09:10:00 8.4 C 90 % 6.86 C
400 18-03-2014 09:15:00 8.4 C 90 % 6.86 C
Sensor: Nr:Datum:Temp:Feuchte:Taupunkt:
Aussen-T/F 401 18-03-2014 09:20:00 8.5 C 90 % 6.96 C
402 18-03-2014 09:25:00 8.6 C 90 % 7.06 C
403 18-03-2014 09:30:00 8.6 C 90 % 7.06 C
404 18-03-2014 09:35:00 8.7 C 90 % 7.15 C
405 18-03-2014 09:40:00 8.7 C 89 % 6.99 C
406 18-03-2014 09:45:00 8.7 C 89 % 6.99 C
407 18-03-2014 09:50:00 8.8 C 89 % 7.09 C
408 18-03-2014 09:55:00 8.8 C 88 % 6.93 C
409 18-03-2014 10:00:00 8.8 C 89 % 7.09 C
410 18-03-2014 10:05:00 8.8 C 89 % 7.09 C
411 18-03-2014 10:10:00 8.8 C 88 % 6.93 C
412 18-03-2014 10:15:00 8.8 C 88 % 6.93 C
413 18-03-2014 10:20:00 8.8 C 88 % 6.93 C
414 18-03-2014 10:25:00 8.7 C 88 % 6.83 C
415 18-03-2014 10:30:00 8.7 C 88 % 6.83 C
416 18-03-2014 10:35:00 8.7 C 87 % 6.66 C
417 18-03-2014 10:40:00 8.6 C 88 % 6.73 C
418 18-03-2014 10:45:00 8.6 C 88 % 6.73 C
419 18-03-2014 10:50:00 8.6 C 88 % 6.73 C
420 18-03-2014 10:55:00 8.6 C 88 % 6.73 C
421 18-03-2014 11:00:00 8.6 C 89 % 6.89 C
422 18-03-2014 11:05:00 8.6 C 89 % 6.89 C
423 18-03-2014 11:10:00 8.6 C 90 % 7.06 C
424 18-03-2014 11:15:00 8.6 C 90 % 7.06 C
425 18-03-2014 11:20:00 8.5 C 90 % 6.96 C
Sensor: Nr:Datum:Temp:Feuchte:Taupunkt:
Aussen-T/F 426 18-03-2014 11:25:00 8.5 C 91 % 7.12 C
427 18-03-2014 11:30:00 8.5 C 91 % 7.12 C
428 18-03-2014 11:35:00 8.5 C 91 % 7.12 C
429 18-03-2014 11:40:00 8.5 C 91 % 7.12 C
430 18-03-2014 11:45:00 8.6 C 91 % 7.22 C
431 18-03-2014 11:50:00 8.6 C 91 % 7.22 C
432 18-03-2014 11:55:00 8.7 C 91 % 7.32 C
433 18-03-2014 12:00:00 8.7 C 91 % 7.32 C
434 18-03-2014 12:05:00 8.8 C 91 % 7.41 C
435 18-03-2014 12:10:00 8.9 C 91 % 7.51 C
436 18-03-2014 12:15:00 8.9 C 90 % 7.35 C
437 18-03-2014 12:20:00 9.1 C 90 % 7.55 C
438 18-03-2014 12:25:00 9.1 C 90 % 7.55 C
439 18-03-2014 12:30:00 9.1 C 89 % 7.39 C
440 18-03-2014 12:35:00 9.1 C 89 % 7.39 C
441 18-03-2014 12:40:00 9.2 C 89 % 7.48 C
442 18-03-2014 12:45:00 9.2 C 88 % 7.32 C
443 18-03-2014 12:50:00 9.2 C 89 % 7.48 C
444 18-03-2014 12:55:00 9.2 C 88 % 7.32 C
445 18-03-2014 13:00:00 9.2 C 88 % 7.32 C
446 18-03-2014 13:05:00 9.2 C 88 % 7.32 C
447 18-03-2014 13:10:00 9.3 C 88 % 7.42 C
448 18-03-2014 13:15:00 9.3 C 87 % 7.25 C
449 18-03-2014 13:20:00 9.3 C 87 % 7.25 C
450 18-03-2014 13:25:00 9.4 C 87 % 7.35 C
Sensor: Nr:Datum:Temp:Feuchte:Taupunkt:
Aussen-T/F 451 18-03-2014 13:30:00 9.5 C 87 % 7.45 C
452 18-03-2014 13:35:00 9.6 C 87 % 7.55 C
453 18-03-2014 13:40:00 9.6 C 87 % 7.55 C
454 18-03-2014 13:45:00 9.7 C 86 % 7.47 C
455 18-03-2014 13:50:00 9.7 C 86 % 7.47 C
456 18-03-2014 13:55:00 9.7 C 85 % 7.3 C
457 18-03-2014 14:00:00 9.8 C 86 % 7.57 C
458 18-03-2014 14:05:00 9.9 C 86 % 7.67 C
459 18-03-2014 14:10:00 10.1 C 85 % 7.7 C
460 18-03-2014 14:15:00 10.2 C 84 % 7.62 C
461 18-03-2014 14:20:00 10.3 C 83 % 7.54 C
462 18-03-2014 14:25:00 10.4 C 83 % 7.64 C
463 18-03-2014 14:30:00 10.6 C 82 % 7.66 C
464 18-03-2014 14:35:00 10.7 C 82 % 7.76 C
465 18-03-2014 14:40:00 10.7 C 82 % 7.76 C
466 18-03-2014 14:45:00 10.8 C 81 % 7.67 C
467 18-03-2014 14:50:00 10.8 C 80 % 7.49 C
468 18-03-2014 14:55:00 10.8 C 80 % 7.49 C
469 18-03-2014 15:00:00 10.9 C 81 % 7.77 C
470 18-03-2014 15:05:00 10.9 C 80 % 7.59 C
471 18-03-2014 15:10:00 10.9 C 80 % 7.59 C
472 18-03-2014 15:15:00 11 C 81 % 7.87 C
473 18-03-2014 15:20:00 11.1 C 80 % 7.79 C
474 18-03-2014 15:25:00 11.2 C 79 % 7.7 C
475 18-03-2014 15:30:00 11.3 C 79 % 7.8 C
Sensor: Nr:Datum:Temp:Feuchte:Taupunkt:
Aussen-T/F 476 18-03-2014 15:35:00 11.5 C 78 % 7.8 C
477 18-03-2014 15:40:00 11.5 C 78 % 7.8 C
478 18-03-2014 15:45:00 11.5 C 78 % 7.8 C
479 18-03-2014 15:50:00 11.5 C 78 % 7.8 C
480 18-03-2014 15:55:00 11.6 C 78 % 7.9 C
481 18-03-2014 16:00:00 11.5 C 77 % 7.61 C
482 18-03-2014 16:05:00 11.4 C 77 % 7.52 C
483 18-03-2014 16:10:00 11.4 C 77 % 7.52 C
484 18-03-2014 16:15:00 11.3 C 76 % 7.23 C
485 18-03-2014 16:20:00 11.3 C 76 % 7.23 C
486 18-03-2014 16:25:00 11.2 C 77 % 7.32 C
487 18-03-2014 16:30:00 11.3 C 77 % 7.42 C
488 18-03-2014 16:35:00 11.3 C 76 % 7.23 C
489 18-03-2014 16:40:00 11.4 C 76 % 7.33 C
490 18-03-2014 16:45:00 11.6 C 76 % 7.52 C
491 18-03-2014 16:50:00 11.5 C 76 % 7.42 C
492 18-03-2014 16:55:00 11.4 C 76 % 7.33 C
493 18-03-2014 17:00:00 11.4 C 76 % 7.33 C
494 18-03-2014 17:05:00 11.4 C 76 % 7.33 C
495 18-03-2014 17:10:00 11.4 C 76 % 7.33 C
496 18-03-2014 17:15:00 11.3 C 76 % 7.23 C
497 18-03-2014 17:20:00 11.3 C 76 % 7.23 C
498 18-03-2014 17:25:00 11.3 C 76 % 7.23 C
499 18-03-2014 17:30:00 11.3 C 75 % 7.04 C
500 18-03-2014 17:35:00 11.4 C 76 % 7.33 C
Sensor: Nr:Datum:Temp:Feuchte:Taupunkt:
Aussen-T/F 501 18-03-2014 17:40:00 11.5 C 76 % 7.42 C
502 18-03-2014 17:45:00 11.6 C 75 % 7.33 C
503 18-03-2014 17:50:00 11.7 C 75 % 7.42 C
504 18-03-2014 17:55:00 11.7 C 75 % 7.42 C
505 18-03-2014 18:00:00 11.7 C 74 % 7.23 C
506 18-03-2014 18:05:00 11.7 C 74 % 7.23 C
507 18-03-2014 18:10:00 11.6 C 75 % 7.33 C
508 18-03-2014 18:15:00 11.5 C 76 % 7.42 C
509 18-03-2014 18:20:00 11.4 C 75 % 7.13 C
510 18-03-2014 18:25:00 11.3 C 75 % 7.04 C
511 18-03-2014 18:30:00 11.3 C 76 % 7.23 C
512 18-03-2014 18:35:00 11.3 C 76 % 7.23 C
513 18-03-2014 18:40:00 11.3 C 76 % 7.23 C
514 18-03-2014 18:45:00 11.2 C 76 % 7.13 C
515 18-03-2014 18:50:00 11.2 C 76 % 7.13 C
516 18-03-2014 18:55:00 11.1 C 76 % 7.04 C
517 18-03-2014 19:00:00 11.2 C 76 % 7.13 C
518 18-03-2014 19:05:00 11.2 C 76 % 7.13 C
519 18-03-2014 19:10:00 11.2 C 76 % 7.13 C
520 18-03-2014 19:15:00 11.2 C 73 % 6.55 C
521 18-03-2014 19:20:00 11.3 C 73 % 6.64 C
522 18-03-2014 19:25:00 11.3 C 72 % 6.44 C
523 18-03-2014 19:30:00 11.3 C 72 % 6.44 C
524 18-03-2014 19:35:00 11.3 C 71 % 6.24 C
525 18-03-2014 19:40:00 11.3 C 71 % 6.24 C
Sensor: Nr:Datum:Temp:Feuchte:Taupunkt:
Aussen-T/F 526 18-03-2014 19:45:00 11.3 C 70 % 6.03 C
527 18-03-2014 19:50:00 11.3 C 71 % 6.24 C
528 18-03-2014 19:55:00 11.3 C 72 % 6.44 C
529 18-03-2014 20:00:00 11.2 C 72 % 6.35 C
530 18-03-2014 20:05:00 11.2 C 72 % 6.35 C
531 18-03-2014 20:10:00 11.1 C 72 % 6.25 C
532 18-03-2014 20:15:00 11 C 71 % 5.95 C
533 18-03-2014 20:20:00 10.9 C 73 % 6.26 C
534 18-03-2014 20:25:00 10.8 C 72 % 5.96 C
535 18-03-2014 20:30:00 10.7 C 71 % 5.66 C
536 18-03-2014 20:35:00 10.7 C 71 % 5.66 C
537 18-03-2014 20:40:00 10.7 C 71 % 5.66 C
538 18-03-2014 20:45:00 10.6 C 70 % 5.36 C
539 18-03-2014 20:50:00 10.6 C 70 % 5.36 C
540 18-03-2014 20:55:00 10.6 C 69 % 5.16 C
541 18-03-2014 21:00:00 10.6 C 70 % 5.36 C
542 18-03-2014 21:05:00 10.6 C 70 % 5.36 C
543 18-03-2014 21:10:00 10.5 C 71 % 5.47 C
544 18-03-2014 21:15:00 10.4 C 71 % 5.38 C
545 18-03-2014 21:20:00 10.4 C 71 % 5.38 C
546 18-03-2014 21:25:00 10.4 C 71 % 5.38 C
547 18-03-2014 21:30:00 10.4 C 71 % 5.38 C
548 18-03-2014 21:35:00 10.4 C 72 % 5.58 C
549 18-03-2014 21:40:00 10.4 C 72 % 5.58 C
550 18-03-2014 21:45:00 10.4 C 72 % 5.58 C
Sensor: Nr:Datum:Temp:Feuchte:Taupunkt:
Aussen-T/F 551 18-03-2014 21:50:00 10.4 C 72 % 5.58 C
552 18-03-2014 21:55:00 10.4 C 72 % 5.58 C
553 18-03-2014 22:00:00 10.4 C 72 % 5.58 C
554 18-03-2014 22:05:00 10.1 C 75 % 5.88 C
555 18-03-2014 22:10:00 10.1 C 75 % 5.88 C
556 18-03-2014 22:15:00 9.9 C 75 % 5.68 C
557 18-03-2014 22:20:00 9.8 C 76 % 5.78 C
558 18-03-2014 22:25:00 9.7 C 76 % 5.68 C
559 18-03-2014 22:30:00 9.7 C 77 % 5.87 C
560 18-03-2014 22:35:00 9.7 C 77 % 5.87 C
561 18-03-2014 22:40:00 9.6 C 77 % 5.77 C
562 18-03-2014 22:45:00 9.5 C 78 % 5.86 C
563 18-03-2014 22:50:00 9.4 C 79 % 5.95 C
564 18-03-2014 22:55:00 9.4 C 79 % 5.95 C
565 18-03-2014 23:00:00 9.5 C 78 % 5.86 C
566 18-03-2014 23:05:00 9.5 C 78 % 5.86 C
567 18-03-2014 23:10:00 9.7 C 78 % 6.06 C
568 18-03-2014 23:15:00 9.8 C 77 % 5.97 C
569 18-03-2014 23:20:00 9.8 C 77 % 5.97 C
570 18-03-2014 23:25:00 9.8 C 77 % 5.97 C
571 18-03-2014 23:30:00 9.9 C 77 % 6.06 C
572 18-03-2014 23:35:00 9.9 C 77 % 6.06 C
573 18-03-2014 23:40:00 10 C 77 % 6.16 C
574 18-03-2014 23:45:00 10.1 C 76 % 6.07 C
575 18-03-2014 23:50:00 10.2 C 76 % 6.16 C
Sensor: Nr:Datum:Temp:Feuchte:Taupunkt:
Aussen-T/F 576 18-03-2014 23:55:00 10.2 C 76 % 6.16 C
577 19-03-2014 00:00:00 10.2 C 76 % 6.16 C
578 19-03-2014 00:05:00 10.1 C 76 % 6.07 C
579 19-03-2014 00:10:00 10.1 C 77 % 6.26 C
580 19-03-2014 00:15:00 10 C 77 % 6.16 C
581 19-03-2014 00:20:00 9.9 C 78 % 6.25 C
582 19-03-2014 00:25:00 9.9 C 80 % 6.62 C
583 19-03-2014 00:30:00 9.9 C 80 % 6.62 C
584 19-03-2014 00:35:00 9.6 C 82 % 6.68 C
585 19-03-2014 00:40:00 9.5 C 82 % 6.59 C
586 19-03-2014 00:45:00 9.5 C 82 % 6.59 C
587 19-03-2014 00:50:00 9.5 C 82 % 6.59 C
588 19-03-2014 00:55:00 9.5 C 82 % 6.59 C
589 19-03-2014 01:00:00 9.6 C 81 % 6.5 C
590 19-03-2014 01:05:00 9.7 C 81 % 6.6 C
591 19-03-2014 01:10:00 9.7 C 81 % 6.6 C
592 19-03-2014 01:15:00 9.7 C 82 % 6.78 C
593 19-03-2014 01:20:00 9.7 C 82 % 6.78 C
594 19-03-2014 01:25:00 9.7 C 82 % 6.78 C
595 19-03-2014 01:30:00 9.8 C 81 % 6.7 C
596 19-03-2014 01:35:00 9.9 C 81 % 6.8 C
597 19-03-2014 01:40:00 9.9 C 81 % 6.8 C
598 19-03-2014 01:45:00 9.9 C 82 % 6.98 C
599 19-03-2014 01:50:00 9.8 C 83 % 7.05 C
600 19-03-2014 01:55:00 9.7 C 84 % 7.13 C
Sensor: Nr:Datum:Temp:Feuchte:Taupunkt:
Aussen-T/F 601 19-03-2014 02:00:00 9.6 C 86 % 7.38 C
602 19-03-2014 02:05:00 9.3 C 87 % 7.25 C
603 19-03-2014 02:10:00 9.2 C 88 % 7.32 C
604 19-03-2014 02:15:00 9.2 C 87 % 7.15 C
605 19-03-2014 02:20:00 9.3 C 85 % 6.91 C
606 19-03-2014 02:25:00 9.5 C 85 % 7.11 C
607 19-03-2014 02:30:00 9.8 C 82 % 6.88 C
608 19-03-2014 02:35:00 9.8 C 82 % 6.88 C
609 19-03-2014 02:40:00 9.8 C 81 % 6.7 C
610 19-03-2014 02:45:00 9.9 C 81 % 6.8 C
611 19-03-2014 02:50:00 10.1 C 80 % 6.81 C
612 19-03-2014 02:55:00 10.1 C 80 % 6.81 C
613 19-03-2014 03:00:00 10.1 C 80 % 6.81 C
614 19-03-2014 03:05:00 10 C 80 % 6.71 C
615 19-03-2014 03:10:00 9.9 C 81 % 6.8 C
616 19-03-2014 03:15:00 9.9 C 81 % 6.8 C
617 19-03-2014 03:20:00 9.9 C 81 % 6.8 C
618 19-03-2014 03:25:00 9.9 C 81 % 6.8 C
619 19-03-2014 03:30:00 9.9 C 81 % 6.8 C
620 19-03-2014 03:35:00 9.9 C 81 % 6.8 C
621 19-03-2014 03:40:00 9.9 C 81 % 6.8 C
622 19-03-2014 03:45:00 9.9 C 81 % 6.8 C
623 19-03-2014 03:50:00 9.9 C 81 % 6.8 C
624 19-03-2014 03:55:00 9.9 C 81 % 6.8 C
625 19-03-2014 04:00:00 9.9 C 81 % 6.8 C
Sensor: Nr:Datum:Temp:Feuchte:Taupunkt:
Aussen-T/F 626 19-03-2014 04:05:00 9.9 C 81 % 6.8 C
627 19-03-2014 04:10:00 9.9 C 81 % 6.8 C
628 19-03-2014 04:15:00 9.9 C 81 % 6.8 C
629 19-03-2014 04:20:00 9.9 C 80 % 6.62 C
630 19-03-2014 04:25:00 9.9 C 80 % 6.62 C
631 19-03-2014 04:30:00 9.9 C 80 % 6.62 C
632 19-03-2014 04:35:00 9.9 C 80 % 6.62 C
633 19-03-2014 04:40:00 9.9 C 80 % 6.62 C
634 19-03-2014 04:45:00 9.9 C 81 % 6.8 C
635 19-03-2014 04:50:00 9.9 C 81 % 6.8 C
636 19-03-2014 04:55:00 9.9 C 80 % 6.62 C
637 19-03-2014 05:00:00 9.9 C 80 % 6.62 C
638 19-03-2014 05:05:00 9.9 C 80 % 6.62 C
639 19-03-2014 05:10:00 10 C 80 % 6.71 C
640 19-03-2014 05:15:00 10.1 C 79 % 6.63 C
641 19-03-2014 05:20:00 10.1 C 79 % 6.63 C
642 19-03-2014 05:25:00 10.1 C 79 % 6.63 C
643 19-03-2014 05:30:00 10 C 80 % 6.71 C
644 19-03-2014 05:35:00 10 C 80 % 6.71 C
645 19-03-2014 05:40:00 9.9 C 80 % 6.62 C
646 19-03-2014 05:45:00 9.9 C 80 % 6.62 C
647 19-03-2014 05:50:00 9.9 C 80 % 6.62 C
648 19-03-2014 05:55:00 9.9 C 80 % 6.62 C
649 19-03-2014 06:00:00 9.9 C 80 % 6.62 C
650 19-03-2014 06:05:00 9.9 C 80 % 6.62 C
Sensor: Nr:Datum:Temp:Feuchte:Taupunkt:
Aussen-T/F 651 19-03-2014 06:10:00 9.9 C 81 % 6.8 C
652 19-03-2014 06:15:00 9.8 C 81 % 6.7 C
653 19-03-2014 06:20:00 9.8 C 81 % 6.7 C
654 19-03-2014 06:25:00 9.8 C 81 % 6.7 C
655 19-03-2014 06:30:00 9.8 C 81 % 6.7 C
656 19-03-2014 06:35:00 9.8 C 80 % 6.52 C
657 19-03-2014 06:40:00 9.8 C 81 % 6.7 C
658 19-03-2014 06:45:00 9.8 C 80 % 6.52 C
659 19-03-2014 06:50:00 9.9 C 80 % 6.62 C
660 19-03-2014 06:55:00 9.9 C 80 % 6.62 C
661 19-03-2014 07:00:00 9.9 C 80 % 6.62 C
662 19-03-2014 07:05:00 9.9 C 80 % 6.62 C
663 19-03-2014 07:10:00 9.9 C 80 % 6.62 C
664 19-03-2014 07:15:00 10 C 79 % 6.53 C
665 19-03-2014 07:20:00 10 C 79 % 6.53 C
666 19-03-2014 07:25:00 10 C 79 % 6.53 C
667 19-03-2014 07:30:00 10 C 80 % 6.71 C
668 19-03-2014 07:35:00 10 C 80 % 6.71 C
669 19-03-2014 07:40:00 9.9 C 80 % 6.62 C
670 19-03-2014 07:45:00 9.9 C 81 % 6.8 C
671 19-03-2014 07:50:00 9.8 C 81 % 6.7 C
672 19-03-2014 07:55:00 9.8 C 81 % 6.7 C
673 19-03-2014 08:00:00 9.9 C 81 % 6.8 C
674 19-03-2014 08:05:00 10 C 81 % 6.89 C
675 19-03-2014 08:10:00 10.1 C 80 % 6.81 C
Sensor: Nr:Datum:Temp:Feuchte:Taupunkt:
Aussen-T/F 676 19-03-2014 08:15:00 10.2 C 80 % 6.91 C
677 19-03-2014 08:20:00 10.2 C 79 % 6.73 C
678 19-03-2014 08:25:00 10.3 C 79 % 6.82 C
679 19-03-2014 08:30:00 10.3 C 79 % 6.82 C
680 19-03-2014 08:35:00 10.3 C 79 % 6.82 C
681 19-03-2014 08:40:00 10.4 C 79 % 6.92 C
682 19-03-2014 08:45:00 10.4 C 78 % 6.74 C
683 19-03-2014 08:50:00 10.5 C 78 % 6.83 C
684 19-03-2014 08:55:00 10.6 C 78 % 6.93 C
685 19-03-2014 09:00:00 10.6 C 78 % 6.93 C
686 19-03-2014 09:05:00 10.6 C 78 % 6.93 C
687 19-03-2014 09:10:00 10.6 C 78 % 6.93 C
688 19-03-2014 09:15:00 10.7 C 77 % 6.84 C
689 19-03-2014 09:20:00 10.8 C 77 % 6.94 C
690 19-03-2014 09:25:00 10.8 C 77 % 6.94 C
691 19-03-2014 09:30:00 10.8 C 77 % 6.94 C
692 19-03-2014 09:35:00 10.9 C 77 % 7.03 C
693 19-03-2014 09:40:00 11 C 77 % 7.13 C
694 19-03-2014 09:45:00 11.1 C 76 % 7.04 C
695 19-03-2014 09:50:00 11.3 C 76 % 7.23 C
696 19-03-2014 09:55:00 11.3 C 75 % 7.04 C
697 19-03-2014 10:00:00 11.4 C 75 % 7.13 C
698 19-03-2014 10:05:00 11.5 C 76 % 7.42 C
699 19-03-2014 10:10:00 11.6 C 74 % 7.13 C
700 19-03-2014 10:15:00 11.7 C 74 % 7.23 C
Sensor: Nr:Datum:Temp:Feuchte:Taupunkt:
Aussen-T/F 701 19-03-2014 10:20:00 11.7 C 74 % 7.23 C
702 19-03-2014 10:25:00 11.6 C 75 % 7.33 C
703 19-03-2014 10:30:00 11.7 C 74 % 7.23 C
704 19-03-2014 10:35:00 11.8 C 73 % 7.12 C
705 19-03-2014 10:40:00 12.1 C 72 % 7.21 C
706 19-03-2014 10:45:00 12.3 C 70 % 6.99 C
707 19-03-2014 10:50:00 12.6 C 69 % 7.07 C
708 19-03-2014 10:55:00 12.6 C 68 % 6.86 C
709 19-03-2014 11:00:00 12.7 C 66 % 6.52 C
710 19-03-2014 11:05:00 12.8 C 66 % 6.61 C
711 19-03-2014 11:10:00 12.8 C 67 % 6.83 C
712 19-03-2014 11:15:00 12.9 C 66 % 6.71 C
713 19-03-2014 11:20:00 12.9 C 65 % 6.49 C
714 19-03-2014 11:25:00 12.9 C 65 % 6.49 C
715 19-03-2014 11:30:00 13.1 C 66 % 6.9 C
716 19-03-2014 11:35:00 13.3 C 64 % 6.64 C
717 19-03-2014 11:40:00 13.4 C 64 % 6.74 C
718 19-03-2014 11:45:00 13.6 C 64 % 6.93 C
719 19-03-2014 11:50:00 13.7 C 64 % 7.02 C
720 19-03-2014 11:55:00 13.6 C 62 % 6.47 C
721 19-03-2014 12:00:00 13.5 C 63 % 6.6 C
722 19-03-2014 12:05:00 13.6 C 63 % 6.7 C
723 19-03-2014 12:10:00 13.8 C 64 % 7.12 C
724 19-03-2014 12:15:00 14.1 C 63 % 7.17 C
725 19-03-2014 12:20:00 14.3 C 62 % 7.13 C
Sensor: Nr:Datum:Temp:Feuchte:Taupunkt:
Aussen-T/F 726 19-03-2014 12:25:00 14.3 C 61 % 6.89 C
727 19-03-2014 12:30:00 14.4 C 61 % 6.98 C
728 19-03-2014 12:35:00 14.5 C 60 % 6.84 C
729 19-03-2014 12:40:00 14.6 C 60 % 6.93 C
730 19-03-2014 12:45:00 14.7 C 59 % 6.78 C
731 19-03-2014 12:50:00 14.7 C 59 % 6.78 C
732 19-03-2014 12:55:00 14.9 C 59 % 6.97 C
733 19-03-2014 13:00:00 15.3 C 58 % 7.09 C
734 19-03-2014 13:05:00 15.7 C 58 % 7.47 C
735 19-03-2014 13:10:00 15.7 C 57 % 7.21 C
736 19-03-2014 13:15:00 15.8 C 58 % 7.56 C
737 19-03-2014 13:20:00 15.7 C 58 % 7.47 C
738 19-03-2014 13:25:00 15.8 C 58 % 7.56 C
739 19-03-2014 13:30:00 16.1 C 57 % 7.59 C
740 19-03-2014 13:35:00 16.1 C 56 % 7.33 C
741 19-03-2014 13:40:00 15.9 C 57 % 7.4 C
742 19-03-2014 13:45:00 15.7 C 57 % 7.21 C
743 19-03-2014 13:50:00 15.5 C 58 % 7.28 C
744 19-03-2014 13:55:00 15.6 C 58 % 7.37 C
745 19-03-2014 14:00:00 15.8 C 57 % 7.31 C
746 19-03-2014 14:05:00 15.8 C 57 % 7.31 C
747 19-03-2014 14:10:00 15.8 C 58 % 7.56 C
748 19-03-2014 14:15:00 15.8 C 57 % 7.31 C
749 19-03-2014 14:20:00 15.7 C 58 % 7.47 C
750 19-03-2014 14:25:00 15.7 C 58 % 7.47 C
Sensor: Nr:Datum:Temp:Feuchte:Taupunkt:
Aussen-T/F 751 19-03-2014 14:30:00 15.8 C 58 % 7.56 C
752 19-03-2014 14:35:00 16 C 57 % 7.49 C
753 19-03-2014 14:40:00 15.8 C 57 % 7.31 C
754 19-03-2014 14:45:00 15.9 C 58 % 7.66 C
755 19-03-2014 14:50:00 15.9 C 57 % 7.4 C
756 19-03-2014 14:55:00 16.1 C 57 % 7.59 C
757 19-03-2014 15:00:00 16.1 C 56 % 7.33 C
758 19-03-2014 15:05:00 16 C 56 % 7.24 C
759 19-03-2014 15:10:00 16.3 C 56 % 7.52 C
760 19-03-2014 15:15:00 16.5 C 55 % 7.44 C
761 19-03-2014 15:20:00 16.5 C 55 % 7.44 C
762 19-03-2014 15:25:00 16.6 C 54 % 7.26 C
763 19-03-2014 15:30:00 16.6 C 54 % 7.26 C
764 19-03-2014 15:35:00 16.7 C 53 % 7.08 C
765 19-03-2014 15:40:00 16.8 C 53 % 7.18 C
766 19-03-2014 15:45:00 17 C 52 % 7.08 C
767 19-03-2014 15:50:00 17 C 52 % 7.08 C
768 19-03-2014 15:55:00 16.8 C 52 % 6.9 C
769 19-03-2014 16:00:00 16.8 C 52 % 6.9 C
770 19-03-2014 16:05:00 16.7 C 52 % 6.81 C
771 19-03-2014 16:10:00 16.7 C 54 % 7.36 C
772 19-03-2014 16:15:00 16.7 C 53 % 7.08 C
773 19-03-2014 16:20:00 16.5 C 53 % 6.9 C
774 19-03-2014 16:25:00 16.4 C 53 % 6.81 C
775 19-03-2014 16:30:00 16.4 C 53 % 6.81 C
Sensor: Nr:Datum:Temp:Feuchte:Taupunkt:
Aussen-T/F 776 19-03-2014 16:35:00 16.4 C 54 % 7.08 C
777 19-03-2014 16:40:00 16.5 C 54 % 7.17 C
778 19-03-2014 16:45:00 16.5 C 54 % 7.17 C
779 19-03-2014 16:50:00 16.5 C 55 % 7.44 C
780 19-03-2014 16:55:00 16.4 C 55 % 7.35 C
781 19-03-2014 17:00:00 16.3 C 55 % 7.25 C
782 19-03-2014 17:05:00 16.2 C 55 % 7.16 C
783 19-03-2014 17:10:00 15.9 C 56 % 7.14 C
784 19-03-2014 17:15:00 15.9 C 57 % 7.4 C
785 19-03-2014 17:20:00 15.9 C 57 % 7.4 C
786 19-03-2014 17:25:00 15.9 C 57 % 7.4 C
787 19-03-2014 17:30:00 15.9 C 58 % 7.66 C
788 19-03-2014 17:35:00 16 C 58 % 7.75 C
789 19-03-2014 17:40:00 15.9 C 58 % 7.66 C
790 19-03-2014 17:45:00 15.7 C 58 % 7.47 C
791 19-03-2014 17:50:00 15.6 C 59 % 7.62 C
792 19-03-2014 17:55:00 15.4 C 60 % 7.68 C
793 19-03-2014 18:00:00 15.3 C 60 % 7.59 C
794 19-03-2014 18:05:00 15.2 C 61 % 7.74 C
795 19-03-2014 18:10:00 15.1 C 61 % 7.64 C
796 19-03-2014 18:15:00 14.9 C 62 % 7.69 C
797 19-03-2014 18:20:00 14.8 C 62 % 7.6 C
798 19-03-2014 18:25:00 14.6 C 63 % 7.64 C
799 19-03-2014 18:30:00 14.4 C 63 % 7.45 C
800 19-03-2014 18:35:00 14.3 C 64 % 7.59 C
Sensor: Nr:Datum:Temp:Feuchte:Taupunkt:
Aussen-T/F 801 19-03-2014 18:40:00 14.2 C 64 % 7.5 C
802 19-03-2014 18:45:00 14.1 C 64 % 7.4 C
803 19-03-2014 18:50:00 14 C 65 % 7.53 C
804 19-03-2014 18:55:00 13.9 C 65 % 7.44 C
805 19-03-2014 19:00:00 13.8 C 65 % 7.34 C
806 19-03-2014 19:05:00 13.8 C 65 % 7.34 C
807 19-03-2014 19:10:00 13.7 C 65 % 7.25 C
808 19-03-2014 19:15:00 13.6 C 66 % 7.38 C
809 19-03-2014 19:20:00 13.5 C 66 % 7.28 C
810 19-03-2014 19:25:00 13.4 C 66 % 7.19 C
811 19-03-2014 19:30:00 13.3 C 66 % 7.09 C
812 19-03-2014 19:35:00 13.2 C 67 % 7.21 C
813 19-03-2014 19:40:00 13.2 C 67 % 7.21 C
814 19-03-2014 19:45:00 13.1 C 67 % 7.12 C
815 19-03-2014 19:50:00 12.9 C 68 % 7.14 C
816 19-03-2014 19:55:00 12.8 C 68 % 7.05 C
817 19-03-2014 20:00:00 12.6 C 69 % 7.07 C
818 19-03-2014 20:05:00 12.4 C 69 % 6.88 C
819 19-03-2014 20:10:00 12.3 C 70 % 6.99 C
820 19-03-2014 20:15:00 12.3 C 69 % 6.78 C
821 19-03-2014 20:20:00 12.3 C 69 % 6.78 C
822 19-03-2014 20:25:00 12.3 C 70 % 6.99 C
823 19-03-2014 20:30:00 12.3 C 69 % 6.78 C
824 19-03-2014 20:35:00 12.3 C 69 % 6.78 C
825 19-03-2014 20:40:00 12.4 C 69 % 6.88 C
Sensor: Nr:Datum:Temp:Feuchte:Taupunkt:
Aussen-T/F 826 19-03-2014 20:45:00 12.4 C 69 % 6.88 C
827 19-03-2014 20:50:00 12.4 C 69 % 6.88 C
828 19-03-2014 20:55:00 12.3 C 69 % 6.78 C
829 19-03-2014 21:00:00 12.3 C 69 % 6.78 C
830 19-03-2014 21:05:00 12.3 C 69 % 6.78 C
831 19-03-2014 21:10:00 12.3 C 69 % 6.78 C
832 19-03-2014 21:15:00 12.2 C 69 % 6.69 C
833 19-03-2014 21:20:00 12.1 C 70 % 6.8 C
834 19-03-2014 21:25:00 12.1 C 70 % 6.8 C
835 19-03-2014 21:30:00 12.1 C 70 % 6.8 C
836 19-03-2014 21:35:00 12 C 70 % 6.71 C
837 19-03-2014 21:40:00 11.9 C 70 % 6.61 C
838 19-03-2014 21:45:00 11.9 C 70 % 6.61 C
839 19-03-2014 21:50:00 11.9 C 69 % 6.4 C
840 19-03-2014 21:55:00 11.9 C 70 % 6.61 C
841 19-03-2014 22:00:00 11.7 C 70 % 6.42 C
842 19-03-2014 22:05:00 11.7 C 70 % 6.42 C
843 19-03-2014 22:10:00 11.6 C 70 % 6.32 C
844 19-03-2014 22:15:00 11.6 C 71 % 6.53 C
845 19-03-2014 22:20:00 11.6 C 71 % 6.53 C
846 19-03-2014 22:25:00 11.7 C 71 % 6.62 C
847 19-03-2014 22:30:00 11.7 C 71 % 6.62 C
848 19-03-2014 22:35:00 11.7 C 71 % 6.62 C
849 19-03-2014 22:40:00 11.7 C 71 % 6.62 C
850 19-03-2014 22:45:00 11.7 C 71 % 6.62 C
Sensor: Nr:Datum:Temp:Feuchte:Taupunkt:
Aussen-T/F 851 19-03-2014 22:50:00 11.7 C 71 % 6.62 C
852 19-03-2014 22:55:00 11.7 C 71 % 6.62 C
853 19-03-2014 23:00:00 11.5 C 71 % 6.43 C
854 19-03-2014 23:05:00 11.4 C 71 % 6.34 C
855 19-03-2014 23:10:00 11.3 C 72 % 6.44 C
856 19-03-2014 23:15:00 11.2 C 73 % 6.55 C
857 19-03-2014 23:20:00 11 C 74 % 6.55 C
858 19-03-2014 23:25:00 10.9 C 74 % 6.45 C
859 19-03-2014 23:30:00 10.9 C 74 % 6.45 C
860 19-03-2014 23:35:00 10.9 C 74 % 6.45 C
861 19-03-2014 23:40:00 10.9 C 74 % 6.45 C
862 19-03-2014 23:45:00 10.9 C 74 % 6.45 C
863 19-03-2014 23:50:00 10.9 C 74 % 6.45 C
864 19-03-2014 23:55:00 10.9 C 74 % 6.45 C
865 20-03-2014 00:00:00 10.8 C 75 % 6.55 C
866 20-03-2014 00:05:00 10.7 C 75 % 6.46 C
867 20-03-2014 00:10:00 10.6 C 75 % 6.36 C
868 20-03-2014 00:15:00 10.5 C 76 % 6.45 C
869 20-03-2014 00:20:00 10.5 C 75 % 6.26 C
870 20-03-2014 00:25:00 10.4 C 76 % 6.36 C
871 20-03-2014 00:30:00 10.2 C 76 % 6.16 C
872 20-03-2014 00:35:00 9.9 C 77 % 6.06 C
873 20-03-2014 00:40:00 9.9 C 77 % 6.06 C
874 20-03-2014 00:45:00 9.8 C 77 % 5.97 C
875 20-03-2014 00:50:00 9.7 C 78 % 6.06 C
Sensor: Nr:Datum:Temp:Feuchte:Taupunkt:
Aussen-T/F 876 20-03-2014 00:55:00 9.6 C 78 % 5.96 C
877 20-03-2014 01:00:00 9.6 C 79 % 6.14 C
878 20-03-2014 01:05:00 9.4 C 79 % 5.95 C
879 20-03-2014 01:10:00 9.4 C 79 % 5.95 C
880 20-03-2014 01:15:00 9.4 C 79 % 5.95 C
881 20-03-2014 01:20:00 9.5 C 79 % 6.05 C
882 20-03-2014 01:25:00 9.4 C 79 % 5.95 C
883 20-03-2014 01:30:00 9.3 C 80 % 6.03 C
884 20-03-2014 01:35:00 9.2 C 80 % 5.94 C
885 20-03-2014 01:40:00 9.1 C 80 % 5.84 C
886 20-03-2014 01:45:00 8.9 C 81 % 5.82 C
887 20-03-2014 01:50:00 8.8 C 81 % 5.72 C
888 20-03-2014 01:55:00 8.8 C 82 % 5.9 C
889 20-03-2014 02:00:00 8.7 C 82 % 5.8 C
890 20-03-2014 02:05:00 8.7 C 82 % 5.8 C
891 20-03-2014 02:10:00 8.7 C 81 % 5.63 C
892 20-03-2014 02:15:00 8.8 C 82 % 5.9 C
893 20-03-2014 02:20:00 8.7 C 81 % 5.63 C
894 20-03-2014 02:25:00 8.7 C 82 % 5.8 C
895 20-03-2014 02:30:00 8.7 C 81 % 5.63 C
896 20-03-2014 02:35:00 8.7 C 81 % 5.63 C
897 20-03-2014 02:40:00 8.7 C 82 % 5.8 C
898 20-03-2014 02:45:00 8.7 C 81 % 5.63 C
899 20-03-2014 02:50:00 8.6 C 81 % 5.53 C
900 20-03-2014 02:55:00 8.6 C 82 % 5.71 C
Sensor: Nr:Datum:Temp:Feuchte:Taupunkt:
Aussen-T/F 901 20-03-2014 03:00:00 8.6 C 82 % 5.71 C
902 20-03-2014 03:05:00 8.5 C 82 % 5.61 C
903 20-03-2014 03:10:00 8.4 C 82 % 5.51 C
904 20-03-2014 03:15:00 8.3 C 82 % 5.41 C
905 20-03-2014 03:20:00 8.2 C 82 % 5.32 C
906 20-03-2014 03:25:00 8.1 C 82 % 5.22 C
907 20-03-2014 03:30:00 7.8 C 83 % 5.1 C
908 20-03-2014 03:35:00 7.5 C 85 % 5.15 C
909 20-03-2014 03:40:00 7.1 C 85 % 4.75 C
910 20-03-2014 03:45:00 6.8 C 87 % 4.79 C
911 20-03-2014 03:50:00 6.7 C 87 % 4.69 C
912 20-03-2014 03:55:00 6.6 C 88 % 4.76 C
913 20-03-2014 04:00:00 6.5 C 89 % 4.82 C
914 20-03-2014 04:05:00 6.4 C 89 % 4.72 C
915 20-03-2014 04:10:00 6.4 C 89 % 4.72 C
916 20-03-2014 04:15:00 6.5 C 89 % 4.82 C
917 20-03-2014 04:20:00 6.6 C 89 % 4.92 C
918 20-03-2014 04:25:00 6.6 C 88 % 4.76 C
919 20-03-2014 04:30:00 6.6 C 88 % 4.76 C
920 20-03-2014 04:35:00 6.4 C 88 % 4.56 C
921 20-03-2014 04:40:00 6.2 C 88 % 4.36 C
922 20-03-2014 04:45:00 6.1 C 89 % 4.43 C
923 20-03-2014 04:50:00 6.1 C 89 % 4.43 C
924 20-03-2014 04:55:00 6 C 89 % 4.33 C
925 20-03-2014 05:00:00 5.9 C 89 % 4.23 C
Sensor: Nr:Datum:Temp:Feuchte:Taupunkt:
Aussen-T/F 926 20-03-2014 05:05:00 5.8 C 90 % 4.29 C
927 20-03-2014 05:10:00 5.8 C 90 % 4.29 C
928 20-03-2014 05:15:00 5.7 C 90 % 4.19 C
929 20-03-2014 05:20:00 5.6 C 90 % 4.09 C
930 20-03-2014 05:25:00 5.5 C 90 % 3.99 C
931 20-03-2014 05:30:00 5.4 C 90 % 3.89 C
932 20-03-2014 05:35:00 5.4 C 91 % 4.05 C
933 20-03-2014 05:40:00 5.3 C 91 % 3.95 C
934 20-03-2014 05:45:00 5.2 C 91 % 3.85 C
935 20-03-2014 05:50:00 5.1 C 91 % 3.76 C
936 20-03-2014 05:55:00 5.1 C 91 % 3.76 C
937 20-03-2014 06:00:00 5 C 92 % 3.81 C
938 20-03-2014 06:05:00 5.1 C 92 % 3.91 C
939 20-03-2014 06:10:00 5 C 92 % 3.81 C
940 20-03-2014 06:15:00 4.9 C 92 % 3.71 C
941 20-03-2014 06:20:00 4.9 C 92 % 3.71 C
942 20-03-2014 06:25:00 4.8 C 92 % 3.61 C
943 20-03-2014 06:30:00 4.7 C 92 % 3.51 C
944 20-03-2014 06:35:00 4.7 C 92 % 3.51 C
945 20-03-2014 06:40:00 4.6 C 92 % 3.42 C
946 20-03-2014 06:45:00 4.6 C 93 % 3.57 C
947 20-03-2014 06:50:00 4.5 C 93 % 3.47 C
948 20-03-2014 06:55:00 4.5 C 93 % 3.47 C
949 20-03-2014 07:00:00 4.4 C 93 % 3.37 C
950 20-03-2014 07:05:00 4.4 C 93 % 3.37 C
Sensor: Nr:Datum:Temp:Feuchte:Taupunkt:
Aussen-T/F 951 20-03-2014 07:10:00 4.4 C 93 % 3.37 C
952 20-03-2014 07:15:00 4.4 C 94 % 3.52 C
953 20-03-2014 07:20:00 4.5 C 94 % 3.62 C
954 20-03-2014 07:25:00 4.6 C 94 % 3.72 C
955 20-03-2014 07:30:00 4.6 C 94 % 3.72 C
956 20-03-2014 07:35:00 4.6 C 94 % 3.72 C
957 20-03-2014 07:40:00 4.6 C 94 % 3.72 C
958 20-03-2014 07:45:00 4.7 C 94 % 3.82 C
959 20-03-2014 07:50:00 4.8 C 94 % 3.92 C
960 20-03-2014 07:55:00 4.8 C 94 % 3.92 C
961 20-03-2014 08:00:00 4.8 C 94 % 3.92 C
962 20-03-2014 08:05:00 4.9 C 94 % 4.02 C
963 20-03-2014 08:10:00 5 C 94 % 4.12 C
964 20-03-2014 08:15:00 5.1 C 94 % 4.22 C
965 20-03-2014 08:20:00 5.1 C 94 % 4.22 C
966 20-03-2014 08:25:00 5.1 C 94 % 4.22 C
967 20-03-2014 08:30:00 5.1 C 94 % 4.22 C
968 20-03-2014 08:35:00 5.2 C 94 % 4.32 C
969 20-03-2014 08:40:00 5.5 C 95 % 4.76 C
970 20-03-2014 08:45:00 5.6 C 94 % 4.71 C
971 20-03-2014 08:50:00 5.6 C 94 % 4.71 C
972 20-03-2014 08:55:00 5.7 C 94 % 4.81 C
973 20-03-2014 09:00:00 5.9 C 95 % 5.16 C
974 20-03-2014 09:05:00 6.1 C 94 % 5.21 C
975 20-03-2014 09:10:00 6.2 C 94 % 5.31 C
Sensor: Nr:Datum:Temp:Feuchte:Taupunkt:
Aussen-T/F 976 20-03-2014 09:15:00 6.3 C 94 % 5.41 C
977 20-03-2014 09:20:00 6.6 C 93 % 5.55 C
978 20-03-2014 09:25:00 6.8 C 93 % 5.75 C
979 20-03-2014 09:30:00 7.1 C 92 % 5.89 C
980 20-03-2014 09:35:00 7.3 C 92 % 6.09 C
981 20-03-2014 09:40:00 7.5 C 91 % 6.13 C
982 20-03-2014 09:45:00 7.7 C 91 % 6.33 C
983 20-03-2014 09:50:00 7.9 C 91 % 6.52 C
984 20-03-2014 09:55:00 8.2 C 90 % 6.66 C
985 20-03-2014 10:00:00 8.4 C 89 % 6.7 C
986 20-03-2014 10:05:00 8.7 C 88 % 6.83 C
987 20-03-2014 10:10:00 9.2 C 87 % 7.15 C
988 20-03-2014 10:15:00 9.4 C 86 % 7.18 C
989 20-03-2014 10:20:00 9.6 C 84 % 7.03 C
990 20-03-2014 10:25:00 9.8 C 84 % 7.23 C
991 20-03-2014 10:30:00 10.2 C 83 % 7.45 C
992 20-03-2014 10:35:00 10.5 C 81 % 7.38 C
993 20-03-2014 10:40:00 11 C 77 % 7.13 C
994 20-03-2014 10:45:00 11.7 C 73 % 7.03 C
995 20-03-2014 10:50:00 12.2 C 72 % 7.31 C
996 20-03-2014 10:55:00 12.6 C 67 % 6.64 C
997 20-03-2014 11:00:00 12.8 C 73 % 8.09 C
998 20-03-2014 11:05:00 13 C 68 % 7.24 C
999 20-03-2014 11:10:00 13.4 C 70 % 8.05 C
1000 20-03-2014 11:15:00 13.6 C 67 % 7.6 C
Sensor: Nr:Datum:Temp:Feuchte:Taupunkt:
Aussen-T/F 1001 20-03-2014 11:20:00 14.1 C 63 % 7.17 C
1002 20-03-2014 11:25:00 14.6 C 66 % 8.33 C
1003 20-03-2014 11:30:00 14.9 C 58 % 6.72 C
1004 20-03-2014 11:35:00 15.3 C 60 % 7.59 C
1005 20-03-2014 11:40:00 15.8 C 53 % 6.25 C
1006 20-03-2014 11:45:00 16.3 C 54 % 6.98 C
1007 20-03-2014 11:50:00 16.7 C 51 % 6.52 C
1008 20-03-2014 11:55:00 17 C 46 % 5.31 C
1009 20-03-2014 12:00:00 17.4 C 45 % 5.36 C
1010 20-03-2014 12:05:00 17.8 C 45 % 5.72 C
1011 20-03-2014 12:10:00 18 C 43 % 5.25 C
1012 20-03-2014 12:15:00 18.3 C 43 % 5.52 C
1013 20-03-2014 12:20:00 18.7 C 39 % 4.48 C
1014 20-03-2014 12:25:00 19 C 40 % 5.11 C
1015 20-03-2014 12:30:00 19.2 C 42 % 5.99 C
1016 20-03-2014 12:35:00 19.2 C 38 % 4.55 C
1017 20-03-2014 12:40:00 19.2 C 39 % 4.92 C
1018 20-03-2014 12:45:00 19.6 C 40 % 5.64 C
1019 20-03-2014 12:50:00 20 C 38 % 5.26 C
1020 20-03-2014 12:55:00 19.9 C 36 % 4.4 C
1021 20-03-2014 13:00:00 19.7 C 36 % 4.23 C
1022 20-03-2014 13:05:00 19.7 C 36 % 4.23 C
1023 20-03-2014 13:10:00 19.7 C 36 % 4.23 C
1024 20-03-2014 13:15:00 19.8 C 39 % 5.46 C
1025 20-03-2014 13:20:00 19.9 C 38 % 5.18 C
Sensor: Nr:Datum:Temp:Feuchte:Taupunkt:
Aussen-T/F 1026 20-03-2014 13:25:00 19.9 C 39 % 5.55 C
1027 20-03-2014 13:30:00 20 C 40 % 6 C
1028 20-03-2014 13:35:00 19.9 C 37 % 4.79 C
1029 20-03-2014 13:40:00 19.9 C 37 % 4.79 C
1030 20-03-2014 13:45:00 19.8 C 38 % 5.09 C
1031 20-03-2014 13:50:00 19.8 C 38 % 5.09 C
1032 20-03-2014 13:55:00 19.9 C 40 % 5.91 C
1033 20-03-2014 14:00:00 20 C 40 % 6 C
1034 20-03-2014 14:05:00 20.1 C 37 % 4.97 C
1035 20-03-2014 14:10:00 20.1 C 39 % 5.73 C
1036 20-03-2014 14:15:00 20.1 C 37 % 4.97 C
1037 20-03-2014 14:20:00 20.2 C 41 % 6.54 C
1038 20-03-2014 14:25:00 20.4 C 38 % 5.62 C
1039 20-03-2014 14:30:00 20.7 C 38 % 5.89 C
1040 20-03-2014 14:35:00 20.6 C 36 % 5.02 C
1041 20-03-2014 14:40:00 20.4 C 37 % 5.24 C
1042 20-03-2014 14:45:00 20.3 C 38 % 5.53 C
1043 20-03-2014 14:50:00 20.3 C 38 % 5.53 C
1044 20-03-2014 14:55:00 20.3 C 40 % 6.27 C
1045 20-03-2014 15:00:00 20.3 C 39 % 5.9 C
1046 20-03-2014 15:05:00 20.3 C 38 % 5.53 C
1047 20-03-2014 15:10:00 20.5 C 38 % 5.71 C
1048 20-03-2014 15:15:00 20.5 C 39 % 6.08 C
1049 20-03-2014 15:20:00 20.4 C 39 % 5.99 C
1050 20-03-2014 15:25:00 20.6 C 40 % 6.54 C
Sensor: Nr:Datum:Temp:Feuchte:Taupunkt:
Aussen-T/F 1051 20-03-2014 15:30:00 20.9 C 39 % 6.44 C
1052 20-03-2014 15:35:00 21.4 C 39 % 6.89 C
1053 20-03-2014 15:40:00 21.7 C 37 % 6.39 C
1054 20-03-2014 15:45:00 21.7 C 35 % 5.58 C
1055 20-03-2014 15:50:00 21.7 C 34 % 5.17 C
1056 20-03-2014 15:55:00 21.8 C 36 % 6.08 C
1057 20-03-2014 16:00:00 21.8 C 37 % 6.48 C
1058 20-03-2014 16:05:00 21.8 C 37 % 6.48 C
1059 20-03-2014 16:10:00 21.9 C 35 % 5.76 C
1060 20-03-2014 16:15:00 21.9 C 34 % 5.34 C
1061 20-03-2014 16:20:00 21.9 C 35 % 5.76 C
1062 20-03-2014 16:25:00 21.9 C 35 % 5.76 C
1063 20-03-2014 16:30:00 22 C 34 % 5.43 C
1064 20-03-2014 16:35:00 22 C 34 % 5.43 C
1065 20-03-2014 16:40:00 22.1 C 33 % 5.09 C
1066 20-03-2014 16:45:00 22.1 C 32 % 4.65 C
1067 20-03-2014 16:50:00 22.1 C 30 % 3.73 C
1068 20-03-2014 16:55:00 22.1 C 31 % 4.2 C
1069 20-03-2014 17:00:00 22.1 C 31 % 4.2 C
1070 20-03-2014 17:05:00 22.1 C 32 % 4.65 C
1071 20-03-2014 17:10:00 22 C 30 % 3.64 C
1072 20-03-2014 17:15:00 21.9 C 34 % 5.34 C
1073 20-03-2014 17:20:00 21.9 C 31 % 4.02 C
1074 20-03-2014 17:25:00 21.8 C 32 % 4.39 C
1075 20-03-2014 17:30:00 21.8 C 32 % 4.39 C
Sensor: Nr:Datum:Temp:Feuchte:Taupunkt:
Aussen-T/F 1076 20-03-2014 17:35:00 21.8 C 32 % 4.39 C
1077 20-03-2014 17:55:00 20.7 C 37 % 5.5 C
1078 20-03-2014 18:00:00 20.2 C 36 % 4.67 C
1079 20-03-2014 18:05:00 19.7 C 42 % 6.44 C
1080 20-03-2014 18:10:00 18.9 C 44 % 6.39 C
1081 20-03-2014 18:15:00 18.2 C 47 % 6.71 C
1082 20-03-2014 18:20:00 17.6 C 48 % 6.47 C
1083 20-03-2014 18:25:00 17.1 C 44 % 4.76 C
1084 20-03-2014 18:30:00 16.9 C 50 % 6.42 C
1085 20-03-2014 18:35:00 16.7 C 49 % 5.95 C
1086 20-03-2014 18:40:00 16.4 C 49 % 5.67 C
1087 20-03-2014 18:45:00 16.2 C 50 % 5.78 C
1088 20-03-2014 18:50:00 15.8 C 52 % 5.97 C
1089 20-03-2014 18:55:00 15.6 C 52 % 5.79 C
1090 20-03-2014 19:00:00 15.3 C 54 % 6.06 C
1091 20-03-2014 19:05:00 15.1 C 56 % 6.4 C
1092 20-03-2014 19:10:00 14.8 C 56 % 6.12 C
1093 20-03-2014 19:15:00 14.6 C 57 % 6.19 C
1094 20-03-2014 19:20:00 14.4 C 58 % 6.25 C
1095 20-03-2014 19:25:00 14.3 C 59 % 6.41 C
1096 20-03-2014 19:30:00 14.1 C 60 % 6.46 C
1097 20-03-2014 19:35:00 14 C 59 % 6.12 C
1098 20-03-2014 19:40:00 14 C 60 % 6.37 C
1099 20-03-2014 19:45:00 13.9 C 60 % 6.27 C
1100 20-03-2014 19:50:00 13.8 C 60 % 6.18 C
Sensor: Nr:Datum:Temp:Feuchte:Taupunkt:
Aussen-T/F 1101 20-03-2014 19:55:00 13.9 C 60 % 6.27 C
1102 20-03-2014 20:00:00 13.9 C 60 % 6.27 C
1103 20-03-2014 20:05:00 13.9 C 61 % 6.51 C
1104 20-03-2014 20:10:00 13.9 C 61 % 6.51 C
1105 20-03-2014 20:15:00 13.8 C 62 % 6.65 C
1106 20-03-2014 20:20:00 13.8 C 61 % 6.42 C
1107 20-03-2014 20:25:00 13.9 C 61 % 6.51 C
1108 20-03-2014 20:30:00 13.9 C 62 % 6.75 C
1109 20-03-2014 20:35:00 13.8 C 62 % 6.65 C
1110 20-03-2014 20:40:00 13.7 C 63 % 6.79 C
1111 20-03-2014 20:45:00 13.7 C 62 % 6.56 C
1112 20-03-2014 20:50:00 13.7 C 63 % 6.79 C
1113 20-03-2014 20:55:00 13.6 C 64 % 6.93 C
1114 20-03-2014 21:00:00 13.6 C 64 % 6.93 C
1115 20-03-2014 21:05:00 13.7 C 63 % 6.79 C
1116 20-03-2014 21:10:00 13.8 C 63 % 6.89 C
1117 20-03-2014 21:15:00 13.7 C 63 % 6.79 C
1118 20-03-2014 21:20:00 13.6 C 64 % 6.93 C
1119 20-03-2014 21:25:00 13.6 C 64 % 6.93 C
1120 20-03-2014 21:30:00 13.6 C 64 % 6.93 C
1121 20-03-2014 21:35:00 13.6 C 64 % 6.93 C
1122 20-03-2014 21:40:00 13.4 C 65 % 6.96 C
1123 20-03-2014 21:45:00 13.4 C 66 % 7.19 C
1124 20-03-2014 21:50:00 13.2 C 66 % 7 C
1125 20-03-2014 21:55:00 13.2 C 66 % 7 C
Sensor: Nr:Datum:Temp:Feuchte:Taupunkt:
Aussen-T/F 1126 20-03-2014 22:00:00 13.1 C 66 % 6.9 C
1127 20-03-2014 22:05:00 13.1 C 66 % 6.9 C
1128 20-03-2014 22:10:00 12.9 C 67 % 6.93 C
1129 20-03-2014 22:15:00 12.9 C 68 % 7.14 C
1130 20-03-2014 22:20:00 12.8 C 67 % 6.83 C
1131 20-03-2014 22:25:00 12.8 C 69 % 7.26 C
1132 20-03-2014 22:30:00 12.7 C 68 % 6.95 C
1133 20-03-2014 22:35:00 12.7 C 69 % 7.17 C
1134 20-03-2014 22:40:00 12.7 C 68 % 6.95 C
1135 20-03-2014 22:45:00 12.7 C 69 % 7.17 C
1136 20-03-2014 22:50:00 12.6 C 70 % 7.28 C
1137 20-03-2014 22:55:00 12.5 C 69 % 6.97 C
1138 20-03-2014 23:00:00 12.5 C 69 % 6.97 C
1139 20-03-2014 23:05:00 12.5 C 68 % 6.76 C
1140 20-03-2014 23:10:00 12.4 C 70 % 7.09 C
1141 20-03-2014 23:15:00 12.3 C 71 % 7.2 C
1142 20-03-2014 23:20:00 12.4 C 71 % 7.3 C
1143 20-03-2014 23:25:00 12.3 C 71 % 7.2 C
1144 20-03-2014 23:30:00 12.3 C 72 % 7.4 C
1145 20-03-2014 23:35:00 12.1 C 72 % 7.21 C
1146 20-03-2014 23:40:00 11.9 C 72 % 7.02 C
1147 20-03-2014 23:45:00 11.9 C 72 % 7.02 C
1148 20-03-2014 23:50:00 12 C 73 % 7.32 C
1149 20-03-2014 23:55:00 12 C 72 % 7.12 C
1150 21-03-2014 00:00:00 12 C 73 % 7.32 C
Sensor: Nr:Datum:Temp:Feuchte:Taupunkt:
Aussen-T/F 1151 21-03-2014 00:05:00 11.9 C 74 % 7.42 C
1152 21-03-2014 00:10:00 11.8 C 74 % 7.32 C
1153 21-03-2014 00:15:00 11.7 C 73 % 7.03 C
1154 21-03-2014 00:20:00 11.6 C 75 % 7.33 C
1155 21-03-2014 00:25:00 11.6 C 73 % 6.93 C
1156 21-03-2014 00:30:00 11.6 C 74 % 7.13 C
1157 21-03-2014 00:35:00 11.6 C 73 % 6.93 C
1158 21-03-2014 00:40:00 11.6 C 74 % 7.13 C
1159 21-03-2014 00:45:00 11.6 C 75 % 7.33 C
1160 21-03-2014 00:50:00 11.6 C 75 % 7.33 C
1161 21-03-2014 00:55:00 11.4 C 75 % 7.13 C
1162 21-03-2014 01:00:00 11.2 C 76 % 7.13 C
1163 21-03-2014 01:05:00 11.1 C 77 % 7.23 C
1164 21-03-2014 01:10:00 11.1 C 76 % 7.04 C
1165 21-03-2014 01:15:00 11.1 C 76 % 7.04 C
1166 21-03-2014 01:20:00 10.9 C 77 % 7.03 C
1167 21-03-2014 01:25:00 10.9 C 77 % 7.03 C
1168 21-03-2014 01:30:00 10.8 C 78 % 7.12 C
1169 21-03-2014 01:35:00 10.8 C 78 % 7.12 C
1170 21-03-2014 01:40:00 10.7 C 78 % 7.03 C
1171 21-03-2014 01:45:00 10.4 C 78 % 6.74 C
1172 21-03-2014 01:50:00 10.3 C 78 % 6.64 C
1173 21-03-2014 01:55:00 10.2 C 79 % 6.73 C
1174 21-03-2014 02:00:00 10.2 C 79 % 6.73 C
1175 21-03-2014 02:05:00 10.1 C 79 % 6.63 C
Sensor: Nr:Datum:Temp:Feuchte:Taupunkt:
Aussen-T/F 1176 21-03-2014 02:10:00 9.9 C 80 % 6.62 C
1177 21-03-2014 02:15:00 9.8 C 81 % 6.7 C
1178 21-03-2014 02:20:00 9.8 C 81 % 6.7 C
1179 21-03-2014 02:25:00 9.8 C 81 % 6.7 C
1180 21-03-2014 02:30:00 9.7 C 81 % 6.6 C
1181 21-03-2014 02:35:00 9.7 C 80 % 6.42 C
1182 21-03-2014 02:40:00 9.7 C 80 % 6.42 C
1183 21-03-2014 02:45:00 9.7 C 80 % 6.42 C
1184 21-03-2014 02:50:00 9.6 C 81 % 6.5 C
1185 21-03-2014 02:55:00 9.4 C 81 % 6.31 C
1186 21-03-2014 03:00:00 9.4 C 81 % 6.31 C
1187 21-03-2014 03:05:00 9.4 C 82 % 6.49 C
1188 21-03-2014 03:10:00 10.2 C 81 % 7.09 C
1189 21-03-2014 03:15:00 10.9 C 78 % 7.22 C
1190 21-03-2014 03:20:00 11.4 C 77 % 7.52 C
1191 21-03-2014 03:25:00 12.7 C 72 % 7.79 C
1192 21-03-2014 03:30:00 14.2 C 67 % 8.17 C
1193 21-03-2014 03:35:00 14.9 C 64 % 8.16 C
1194 21-03-2014 03:40:00 15.3 C 62 % 8.07 C
1195 21-03-2014 03:45:00 15.4 C 61 % 7.93 C
1196 21-03-2014 03:50:00 15.3 C 62 % 8.07 C
1197 21-03-2014 03:55:00 15.1 C 62 % 7.88 C
1198 21-03-2014 04:00:00 15.3 C 62 % 8.07 C
1199 21-03-2014 04:05:00 15.5 C 61 % 8.02 C
1200 21-03-2014 04:10:00 15.6 C 61 % 8.11 C
Sensor: Nr:Datum:Temp:Feuchte:Taupunkt:
Aussen-T/F 1201 21-03-2014 04:15:00 15.7 C 60 % 7.97 C
1202 21-03-2014 04:20:00 15.8 C 60 % 8.06 C
1203 21-03-2014 04:25:00 15.7 C 61 % 8.21 C
1204 21-03-2014 04:30:00 15.5 C 60 % 7.78 C
1205 21-03-2014 04:35:00 15.7 C 60 % 7.97 C
1206 21-03-2014 04:40:00 15.8 C 60 % 8.06 C
1207 21-03-2014 04:45:00 15.9 C 59 % 7.91 C
1208 21-03-2014 04:50:00 15.8 C 60 % 8.06 C
1209 21-03-2014 04:55:00 15.8 C 60 % 8.06 C
1210 21-03-2014 05:00:00 15.7 C 61 % 8.21 C
1211 21-03-2014 05:05:00 15.6 C 61 % 8.11 C
1212 21-03-2014 05:10:00 15.6 C 61 % 8.11 C
1213 21-03-2014 05:15:00 15.4 C 61 % 7.93 C
1214 21-03-2014 05:20:00 15.3 C 62 % 8.07 C
1215 21-03-2014 05:25:00 15.4 C 61 % 7.93 C
1216 21-03-2014 05:30:00 15.4 C 61 % 7.93 C
1217 21-03-2014 05:35:00 15.5 C 60 % 7.78 C
1218 21-03-2014 05:40:00 15.6 C 60 % 7.87 C
1219 21-03-2014 05:45:00 15.6 C 60 % 7.87 C
1220 21-03-2014 05:50:00 15.5 C 60 % 7.78 C
1221 21-03-2014 05:55:00 15.4 C 60 % 7.68 C
1222 21-03-2014 06:00:00 15.3 C 60 % 7.59 C
1223 21-03-2014 06:05:00 15.3 C 60 % 7.59 C
1224 21-03-2014 06:10:00 15.3 C 59 % 7.34 C
1225 21-03-2014 06:15:00 15.3 C 60 % 7.59 C
Sensor: Nr:Datum:Temp:Feuchte:Taupunkt:
Aussen-T/F 1226 21-03-2014 06:20:00 15.3 C 59 % 7.34 C
1227 21-03-2014 06:25:00 15.3 C 60 % 7.59 C
1228 21-03-2014 06:30:00 15.3 C 60 % 7.59 C
1229 21-03-2014 06:35:00 15.3 C 60 % 7.59 C
1230 21-03-2014 06:40:00 15.3 C 60 % 7.59 C
1231 21-03-2014 06:45:00 15.4 C 60 % 7.68 C
1232 21-03-2014 06:50:00 15.3 C 60 % 7.59 C
1233 21-03-2014 06:55:00 15.4 C 60 % 7.68 C
1234 21-03-2014 07:00:00 15.3 C 60 % 7.59 C
1235 21-03-2014 07:05:00 15.3 C 60 % 7.59 C
1236 21-03-2014 07:10:00 15.3 C 61 % 7.83 C
1237 21-03-2014 07:15:00 15.3 C 61 % 7.83 C
1238 21-03-2014 07:20:00 15.3 C 61 % 7.83 C
1239 21-03-2014 07:25:00 15.3 C 61 % 7.83 C
1240 21-03-2014 07:30:00 15.3 C 61 % 7.83 C
1241 21-03-2014 07:35:00 15.3 C 61 % 7.83 C
1242 21-03-2014 07:40:00 15.3 C 61 % 7.83 C
1243 21-03-2014 07:45:00 15.3 C 61 % 7.83 C
1244 21-03-2014 07:50:00 15.3 C 61 % 7.83 C
1245 21-03-2014 07:55:00 15.3 C 61 % 7.83 C
1246 21-03-2014 08:00:00 15.3 C 60 % 7.59 C
1247 21-03-2014 08:05:00 15.4 C 60 % 7.68 C
1248 21-03-2014 08:10:00 15.4 C 60 % 7.68 C
1249 21-03-2014 08:15:00 15.4 C 60 % 7.68 C
1250 21-03-2014 08:20:00 15.4 C 59 % 7.44 C
Sensor: Nr:Datum:Temp:Feuchte:Taupunkt:
Aussen-T/F 1251 21-03-2014 08:25:00 15.4 C 59 % 7.44 C
1252 21-03-2014 08:30:00 15.4 C 59 % 7.44 C
1253 21-03-2014 08:35:00 15.5 C 58 % 7.28 C
1254 21-03-2014 08:40:00 15.5 C 58 % 7.28 C
1255 21-03-2014 08:45:00 15.5 C 59 % 7.53 C
1256 21-03-2014 08:50:00 15.6 C 58 % 7.37 C
1257 21-03-2014 08:55:00 15.6 C 58 % 7.37 C
1258 21-03-2014 09:00:00 15.6 C 57 % 7.12 C
1259 21-03-2014 09:05:00 15.6 C 57 % 7.12 C
1260 21-03-2014 09:10:00 15.6 C 57 % 7.12 C
1261 21-03-2014 09:15:00 15.7 C 56 % 6.96 C
1262 21-03-2014 09:20:00 15.7 C 57 % 7.21 C
1263 21-03-2014 09:25:00 15.7 C 57 % 7.21 C
1264 21-03-2014 09:30:00 15.8 C 55 % 6.79 C
1265 21-03-2014 09:35:00 15.8 C 55 % 6.79 C
1266 21-03-2014 09:40:00 15.8 C 55 % 6.79 C
1267 21-03-2014 09:45:00 15.8 C 55 % 6.79 C
1268 21-03-2014 09:50:00 15.8 C 55 % 6.79 C
1269 21-03-2014 09:55:00 15.8 C 55 % 6.79 C
1270 21-03-2014 10:00:00 15.9 C 54 % 6.61 C
1271 21-03-2014 10:05:00 15.8 C 54 % 6.52 C
1272 21-03-2014 10:10:00 15.9 C 54 % 6.61 C
1273 21-03-2014 10:15:00 15.9 C 54 % 6.61 C
1274 21-03-2014 10:20:00 15.9 C 54 % 6.61 C
1275 21-03-2014 10:25:00 15.9 C 53 % 6.34 C
Sensor: Nr:Datum:Temp:Feuchte:Taupunkt:
Aussen-T/F 1276 21-03-2014 10:30:00 16 C 53 % 6.44 C
1277 21-03-2014 10:35:00 16 C 54 % 6.71 C
1278 21-03-2014 10:40:00 16.1 C 53 % 6.53 C
1279 21-03-2014 10:45:00 16.2 C 52 % 6.34 C
1280 21-03-2014 10:50:00 16.2 C 52 % 6.34 C
1281 21-03-2014 10:55:00 16.3 C 53 % 6.71 C
1282 21-03-2014 11:00:00 16.4 C 51 % 6.25 C
1283 21-03-2014 11:05:00 16.5 C 51 % 6.34 C
1284 21-03-2014 11:10:00 16.6 C 50 % 6.15 C
1285 21-03-2014 11:15:00 16.7 C 49 % 5.95 C
1286 21-03-2014 11:20:00 16.8 C 49 % 6.04 C
1287 21-03-2014 11:25:00 17 C 49 % 6.22 C
1288 21-03-2014 11:30:00 17.1 C 48 % 6.01 C
1289 21-03-2014 11:35:00 17.1 C 48 % 6.01 C
1290 21-03-2014 11:40:00 17.1 C 48 % 6.01 C
1291 21-03-2014 11:45:00 17.1 C 49 % 6.31 C
1292 21-03-2014 11:50:00 17.1 C 49 % 6.31 C
1293 21-03-2014 11:55:00 17.1 C 48 % 6.01 C
1294 21-03-2014 12:00:00 17.2 C 50 % 6.7 C
1295 21-03-2014 12:05:00 17.2 C 49 % 6.4 C
1296 21-03-2014 12:10:00 17.2 C 49 % 6.4 C
1297 21-03-2014 12:15:00 17.2 C 49 % 6.4 C
1298 21-03-2014 12:20:00 17.1 C 53 % 7.45 C
1299 21-03-2014 12:25:00 16.8 C 55 % 7.72 C
1300 21-03-2014 12:30:00 16.4 C 58 % 8.12 C
Sensor: Nr:Datum:Temp:Feuchte:Taupunkt:
Aussen-T/F 1301 21-03-2014 12:35:00 16.1 C 56 % 7.33 C
1302 21-03-2014 12:40:00 16.1 C 60 % 8.34 C
1303 21-03-2014 12:45:00 16.2 C 58 % 7.94 C
1304 21-03-2014 12:50:00 16.4 C 57 % 7.87 C
1305 21-03-2014 12:55:00 16.6 C 57 % 8.06 C
1306 21-03-2014 13:00:00 16.6 C 55 % 7.53 C
1307 21-03-2014 13:05:00 16.6 C 55 % 7.53 C
1308 21-03-2014 13:10:00 16.4 C 55 % 7.35 C
1309 21-03-2014 13:15:00 16.2 C 56 % 7.42 C
1310 21-03-2014 13:20:00 16.1 C 57 % 7.59 C
1311 21-03-2014 13:25:00 15.9 C 58 % 7.66 C
1312 21-03-2014 13:30:00 15.7 C 60 % 7.97 C
1313 21-03-2014 13:35:00 15.4 C 60 % 7.68 C
1314 21-03-2014 13:40:00 15.3 C 60 % 7.59 C
1315 21-03-2014 13:45:00 15.3 C 61 % 7.83 C
1316 21-03-2014 13:50:00 15.2 C 62 % 7.98 C
1317 21-03-2014 13:55:00 15.1 C 62 % 7.88 C
1318 21-03-2014 14:00:00 15.1 C 62 % 7.88 C
1319 21-03-2014 14:05:00 15 C 63 % 8.02 C
1320 21-03-2014 14:10:00 14.9 C 64 % 8.16 C
1321 21-03-2014 14:15:00 14.9 C 64 % 8.16 C
1322 21-03-2014 14:20:00 14.8 C 65 % 8.29 C
1323 21-03-2014 14:25:00 14.8 C 65 % 8.29 C
1324 21-03-2014 14:30:00 14.8 C 65 % 8.29 C
1325 21-03-2014 14:35:00 14.8 C 66 % 8.52 C
Sensor: Nr:Datum:Temp:Feuchte:Taupunkt:
Aussen-T/F 1326 21-03-2014 14:40:00 14.8 C 66 % 8.52 C
1327 21-03-2014 14:45:00 14.9 C 66 % 8.61 C
1328 21-03-2014 14:50:00 14.9 C 66 % 8.61 C
1329 21-03-2014 14:55:00 14.9 C 65 % 8.39 C
1330 21-03-2014 15:00:00 14.9 C 66 % 8.61 C
1331 21-03-2014 15:05:00 14.9 C 65 % 8.39 C
1332 21-03-2014 15:10:00 14.9 C 65 % 8.39 C
1333 21-03-2014 15:15:00 14.8 C 66 % 8.52 C
1334 21-03-2014 15:20:00 14.6 C 66 % 8.33 C
1335 21-03-2014 15:25:00 14.4 C 67 % 8.36 C
1336 21-03-2014 15:30:00 14.2 C 68 % 8.39 C
1337 21-03-2014 15:35:00 14.1 C 69 % 8.5 C
1338 21-03-2014 15:40:00 14.1 C 70 % 8.72 C
1339 21-03-2014 15:45:00 13.9 C 70 % 8.53 C
1340 21-03-2014 15:50:00 13.9 C 70 % 8.53 C
1341 21-03-2014 15:55:00 13.8 C 69 % 8.22 C
1342 21-03-2014 16:00:00 13.8 C 65 % 7.34 C
1343 21-03-2014 16:05:00 13.8 C 63 % 6.89 C
1344 21-03-2014 16:10:00 13.8 C 61 % 6.42 C
1345 21-03-2014 16:15:00 13.8 C 61 % 6.42 C
1346 21-03-2014 16:20:00 13.8 C 61 % 6.42 C
1347 21-03-2014 16:25:00 13.8 C 60 % 6.18 C
1348 21-03-2014 16:30:00 13.8 C 60 % 6.18 C
1349 21-03-2014 16:35:00 13.8 C 60 % 6.18 C
1350 21-03-2014 16:40:00 13.8 C 61 % 6.42 C
Sensor: Nr:Datum:Temp:Feuchte:Taupunkt:
Aussen-T/F 1351 21-03-2014 16:45:00 13.8 C 61 % 6.42 C
1352 21-03-2014 16:50:00 13.7 C 61 % 6.32 C
1353 21-03-2014 16:55:00 13.7 C 60 % 6.09 C
1354 21-03-2014 17:00:00 13.7 C 61 % 6.32 C
1355 21-03-2014 17:05:00 13.2 C 64 % 6.55 C
1356 21-03-2014 17:10:00 12.7 C 66 % 6.52 C
1357 21-03-2014 17:15:00 12.3 C 68 % 6.57 C
1358 21-03-2014 17:20:00 12.1 C 69 % 6.59 C
1359 21-03-2014 17:25:00 11.9 C 69 % 6.4 C
1360 21-03-2014 17:30:00 11.8 C 69 % 6.31 C
1361 21-03-2014 17:35:00 11.7 C 70 % 6.42 C
1362 21-03-2014 17:40:00 11.6 C 72 % 6.73 C
1363 21-03-2014 17:45:00 11.4 C 72 % 6.54 C
1364 21-03-2014 17:50:00 11.3 C 71 % 6.24 C
1365 21-03-2014 17:55:00 11.3 C 71 % 6.24 C
1366 21-03-2014 18:00:00 11.3 C 73 % 6.64 C
1367 21-03-2014 18:05:00 11.2 C 74 % 6.74 C
1368 21-03-2014 18:10:00 11.2 C 70 % 5.94 C
1369 21-03-2014 18:15:00 11.3 C 70 % 6.03 C
1370 21-03-2014 18:20:00 11.4 C 70 % 6.13 C
1371 21-03-2014 18:25:00 11.4 C 69 % 5.92 C
1372 21-03-2014 18:30:00 11.4 C 68 % 5.71 C
1373 21-03-2014 18:35:00 11.2 C 69 % 5.73 C
1374 21-03-2014 18:40:00 11 C 68 % 5.33 C
1375 21-03-2014 18:45:00 10.8 C 69 % 5.35 C
Sensor: Nr:Datum:Temp:Feuchte:Taupunkt:
Aussen-T/F 1376 21-03-2014 18:50:00 10.7 C 69 % 5.25 C
1377 21-03-2014 18:55:00 10.6 C 69 % 5.16 C
1378 21-03-2014 19:00:00 10.5 C 70 % 5.27 C
1379 21-03-2014 19:05:00 10.4 C 70 % 5.17 C
1380 21-03-2014 19:10:00 10.3 C 71 % 5.28 C
1381 21-03-2014 19:15:00 10.3 C 72 % 5.48 C
1382 21-03-2014 19:20:00 10.1 C 73 % 5.49 C
1383 21-03-2014 19:25:00 9.9 C 73 % 5.29 C
1384 21-03-2014 19:30:00 9.8 C 75 % 5.59 C
1385 21-03-2014 19:35:00 9.7 C 76 % 5.68 C
1386 21-03-2014 19:40:00 9.6 C 76 % 5.58 C
1387 21-03-2014 19:45:00 9.6 C 76 % 5.58 C
1388 21-03-2014 19:50:00 9.5 C 75 % 5.3 C
1389 21-03-2014 19:55:00 9.5 C 75 % 5.3 C
1390 21-03-2014 20:00:00 9.5 C 75 % 5.3 C
1391 21-03-2014 20:05:00 9.4 C 75 % 5.2 C
1392 21-03-2014 20:10:00 9.3 C 76 % 5.29 C
1393 21-03-2014 20:15:00 9.3 C 75 % 5.1 C
1394 21-03-2014 20:20:00 9.3 C 75 % 5.1 C
1395 21-03-2014 20:25:00 9.2 C 77 % 5.38 C
1396 21-03-2014 20:30:00 9.1 C 77 % 5.29 C
1397 21-03-2014 20:35:00 9.1 C 77 % 5.29 C
1398 21-03-2014 20:40:00 9.1 C 76 % 5.1 C
1399 21-03-2014 20:45:00 9.1 C 76 % 5.1 C
1400 21-03-2014 20:50:00 9 C 77 % 5.19 C
Sensor: Nr:Datum:Temp:Feuchte:Taupunkt:
Aussen-T/F 1401 21-03-2014 20:55:00 8.9 C 77 % 5.09 C
1402 21-03-2014 21:00:00 8.9 C 76 % 4.91 C
1403 21-03-2014 21:05:00 8.9 C 78 % 5.28 C
1404 21-03-2014 21:10:00 8.9 C 77 % 5.09 C
1405 21-03-2014 21:15:00 8.9 C 76 % 4.91 C
1406 21-03-2014 21:20:00 9 C 77 % 5.19 C
1407 21-03-2014 21:25:00 9 C 79 % 5.56 C
1408 21-03-2014 21:30:00 9 C 78 % 5.38 C
1409 21-03-2014 21:35:00 8.9 C 78 % 5.28 C
1410 21-03-2014 21:40:00 8.9 C 76 % 4.91 C
1411 21-03-2014 21:45:00 8.9 C 77 % 5.09 C
1412 21-03-2014 21:50:00 8.9 C 76 % 4.91 C
1413 21-03-2014 21:55:00 8.8 C 77 % 5 C
1414 21-03-2014 22:00:00 8.9 C 78 % 5.28 C
1415 21-03-2014 22:05:00 8.9 C 78 % 5.28 C
1416 21-03-2014 22:10:00 8.8 C 79 % 5.36 C
1417 21-03-2014 22:15:00 8.8 C 80 % 5.55 C
1418 21-03-2014 22:20:00 8.7 C 80 % 5.45 C
1419 21-03-2014 22:25:00 8.7 C 80 % 5.45 C
1420 21-03-2014 22:30:00 8.7 C 81 % 5.63 C
1421 21-03-2014 22:35:00 8.7 C 80 % 5.45 C
1422 21-03-2014 22:40:00 8.8 C 80 % 5.55 C
1423 21-03-2014 22:45:00 8.8 C 81 % 5.72 C
1424 21-03-2014 22:50:00 8.8 C 81 % 5.72 C
1425 21-03-2014 22:55:00 8.8 C 81 % 5.72 C
Sensor: Nr:Datum:Temp:Feuchte:Taupunkt:
Aussen-T/F 1426 21-03-2014 23:00:00 8.8 C 81 % 5.72 C
1427 21-03-2014 23:05:00 8.8 C 82 % 5.9 C
1428 21-03-2014 23:10:00 8.8 C 83 % 6.08 C
1429 21-03-2014 23:15:00 8.8 C 83 % 6.08 C
1430 21-03-2014 23:20:00 8.8 C 83 % 6.08 C
1431 21-03-2014 23:25:00 8.8 C 84 % 6.25 C
1432 21-03-2014 23:30:00 8.7 C 84 % 6.15 C
1433 21-03-2014 23:35:00 8.7 C 84 % 6.15 C
1434 21-03-2014 23:40:00 8.7 C 85 % 6.32 C
1435 21-03-2014 23:45:00 8.7 C 85 % 6.32 C
1436 21-03-2014 23:50:00 8.7 C 85 % 6.32 C
1437 21-03-2014 23:55:00 8.7 C 85 % 6.32 C
1438 22-03-2014 00:00:00 8.7 C 85 % 6.32 C
1439 22-03-2014 00:05:00 8.8 C 85 % 6.42 C
1440 22-03-2014 00:10:00 8.8 C 86 % 6.59 C
1441 22-03-2014 00:15:00 8.8 C 86 % 6.59 C
1442 22-03-2014 00:20:00 8.7 C 85 % 6.32 C
1443 22-03-2014 00:25:00 8.7 C 85 % 6.32 C
1444 22-03-2014 00:30:00 8.7 C 85 % 6.32 C
1445 22-03-2014 00:35:00 8.7 C 85 % 6.32 C
1446 22-03-2014 00:40:00 8.6 C 86 % 6.39 C
1447 22-03-2014 00:45:00 8.4 C 86 % 6.2 C
1448 22-03-2014 00:50:00 8.2 C 86 % 6 C
1449 22-03-2014 00:55:00 7.8 C 87 % 5.78 C
1450 22-03-2014 01:00:00 7.7 C 88 % 5.84 C
Sensor: Nr:Datum:Temp:Feuchte:Taupunkt:
Aussen-T/F 1451 22-03-2014 01:05:00 7.7 C 89 % 6 C
1452 22-03-2014 01:10:00 7.7 C 89 % 6 C
1453 22-03-2014 01:15:00 7.8 C 89 % 6.1 C
1454 22-03-2014 01:20:00 7.8 C 89 % 6.1 C
1455 22-03-2014 01:25:00 7.9 C 89 % 6.2 C
1456 22-03-2014 01:30:00 7.9 C 89 % 6.2 C
1457 22-03-2014 01:35:00 7.9 C 89 % 6.2 C
1458 22-03-2014 01:40:00 7.9 C 89 % 6.2 C
1459 22-03-2014 01:45:00 7.9 C 89 % 6.2 C
1460 22-03-2014 01:50:00 7.9 C 90 % 6.36 C
1461 22-03-2014 01:55:00 7.9 C 90 % 6.36 C
1462 22-03-2014 02:00:00 8.1 C 90 % 6.56 C
1463 22-03-2014 02:05:00 8.1 C 90 % 6.56 C
1464 22-03-2014 02:10:00 8.2 C 89 % 6.5 C
1465 22-03-2014 02:15:00 8.3 C 88 % 6.43 C
1466 22-03-2014 02:20:00 8.2 C 88 % 6.33 C
1467 22-03-2014 02:25:00 8.1 C 88 % 6.24 C
1468 22-03-2014 02:30:00 7.8 C 88 % 5.94 C
1469 22-03-2014 02:35:00 7.6 C 89 % 5.91 C
1470 22-03-2014 02:40:00 7.4 C 89 % 5.71 C
1471 22-03-2014 02:45:00 7.2 C 90 % 5.67 C
1472 22-03-2014 02:50:00 7.1 C 90 % 5.57 C
1473 22-03-2014 02:55:00 7.1 C 91 % 5.73 C
1474 22-03-2014 03:00:00 7.1 C 91 % 5.73 C
1475 22-03-2014 03:05:00 7.1 C 91 % 5.73 C
Sensor: Nr:Datum:Temp:Feuchte:Taupunkt:
Aussen-T/F 1476 22-03-2014 03:10:00 7.2 C 91 % 5.83 C
1477 22-03-2014 03:15:00 7.2 C 91 % 5.83 C
1478 22-03-2014 03:20:00 7.3 C 91 % 5.93 C
1479 22-03-2014 03:25:00 7.4 C 91 % 6.03 C
1480 22-03-2014 03:30:00 7.4 C 91 % 6.03 C
1481 22-03-2014 03:35:00 7.6 C 91 % 6.23 C
1482 22-03-2014 03:40:00 7.7 C 91 % 6.33 C
1483 22-03-2014 03:45:00 7.7 C 91 % 6.33 C
1484 22-03-2014 03:50:00 7.8 C 91 % 6.43 C
1485 22-03-2014 03:55:00 7.9 C 91 % 6.52 C
1486 22-03-2014 04:00:00 8 C 91 % 6.62 C
1487 22-03-2014 04:05:00 8.1 C 91 % 6.72 C
1488 22-03-2014 04:10:00 8.2 C 91 % 6.82 C
1489 22-03-2014 04:15:00 8.2 C 90 % 6.66 C
1490 22-03-2014 04:20:00 8.2 C 90 % 6.66 C
1491 22-03-2014 04:25:00 8.3 C 90 % 6.76 C
1492 22-03-2014 04:30:00 8.3 C 90 % 6.76 C
1493 22-03-2014 04:35:00 8.3 C 90 % 6.76 C
1494 22-03-2014 04:40:00 8.3 C 90 % 6.76 C
1495 22-03-2014 04:45:00 8.3 C 90 % 6.76 C
1496 22-03-2014 04:50:00 8.2 C 90 % 6.66 C
1497 22-03-2014 04:55:00 8.2 C 90 % 6.66 C
1498 22-03-2014 05:00:00 8.2 C 90 % 6.66 C
1499 22-03-2014 05:05:00 8.2 C 90 % 6.66 C
1500 22-03-2014 05:10:00 8.2 C 90 % 6.66 C
Sensor: Nr:Datum:Temp:Feuchte:Taupunkt:
Aussen-T/F 1501 22-03-2014 05:15:00 8.2 C 90 % 6.66 C
1502 22-03-2014 05:20:00 8.2 C 90 % 6.66 C
1503 22-03-2014 05:25:00 8.2 C 90 % 6.66 C
1504 22-03-2014 05:30:00 8.3 C 90 % 6.76 C
1505 22-03-2014 05:35:00 8.4 C 89 % 6.7 C
1506 22-03-2014 05:40:00 8.4 C 89 % 6.7 C
1507 22-03-2014 05:45:00 8.4 C 89 % 6.7 C
1508 22-03-2014 05:50:00 8.4 C 89 % 6.7 C
1509 22-03-2014 05:55:00 8.5 C 89 % 6.79 C
1510 22-03-2014 06:00:00 8.5 C 89 % 6.79 C
1511 22-03-2014 06:05:00 8.5 C 89 % 6.79 C
1512 22-03-2014 06:10:00 8.6 C 90 % 7.06 C
1513 22-03-2014 06:15:00 8.6 C 90 % 7.06 C
1514 22-03-2014 06:20:00 8.6 C 91 % 7.22 C
1515 22-03-2014 06:25:00 8.6 C 92 % 7.38 C
1516 22-03-2014 06:30:00 8.4 C 92 % 7.18 C
1517 22-03-2014 06:35:00 8.4 C 92 % 7.18 C
1518 22-03-2014 06:40:00 8.3 C 93 % 7.24 C
1519 22-03-2014 06:45:00 8.3 C 93 % 7.24 C
1520 22-03-2014 06:50:00 8.3 C 93 % 7.24 C
1521 22-03-2014 06:55:00 8.3 C 93 % 7.24 C
1522 22-03-2014 07:00:00 8.3 C 93 % 7.24 C
1523 22-03-2014 07:05:00 8.3 C 93 % 7.24 C
1524 22-03-2014 07:10:00 8.3 C 94 % 7.39 C
1525 22-03-2014 07:15:00 8.3 C 93 % 7.24 C
Sensor: Nr:Datum:Temp:Feuchte:Taupunkt:
Aussen-T/F 1526 22-03-2014 07:20:00 8.4 C 93 % 7.34 C
1527 22-03-2014 07:25:00 8.4 C 93 % 7.34 C
1528 22-03-2014 07:30:00 8.4 C 93 % 7.34 C
1529 22-03-2014 07:35:00 8.4 C 93 % 7.34 C
1530 22-03-2014 07:40:00 8.5 C 91 % 7.12 C
1531 22-03-2014 07:45:00 8.7 C 91 % 7.32 C
1532 22-03-2014 07:50:00 8.8 C 91 % 7.41 C
1533 22-03-2014 07:55:00 8.9 C 89 % 7.19 C
1534 22-03-2014 08:00:00 9.1 C 88 % 7.22 C
1535 22-03-2014 08:05:00 9.2 C 87 % 7.15 C
1536 22-03-2014 08:10:00 9.3 C 89 % 7.58 C
1537 22-03-2014 08:15:00 9.4 C 86 % 7.18 C
1538 22-03-2014 08:20:00 9.5 C 84 % 6.94 C
1539 22-03-2014 08:25:00 9.7 C 81 % 6.6 C
1540 22-03-2014 08:30:00 9.9 C 81 % 6.8 C
1541 22-03-2014 08:35:00 10 C 79 % 6.53 C
1542 22-03-2014 08:40:00 10.1 C 79 % 6.63 C
1543 22-03-2014 08:45:00 10.2 C 78 % 6.54 C
1544 22-03-2014 08:50:00 10.2 C 78 % 6.54 C
1545 22-03-2014 08:55:00 10.3 C 77 % 6.45 C
1546 22-03-2014 09:00:00 10.3 C 77 % 6.45 C
1547 22-03-2014 09:05:00 10.3 C 76 % 6.26 C
1548 22-03-2014 09:10:00 10.3 C 74 % 5.88 C
1549 22-03-2014 09:15:00 10.4 C 73 % 5.78 C
1550 22-03-2014 09:20:00 10.4 C 74 % 5.97 C
Sensor: Nr:Datum:Temp:Feuchte:Taupunkt:
Aussen-T/F 1551 22-03-2014 09:25:00 10.4 C 73 % 5.78 C
1552 22-03-2014 09:30:00 10.5 C 72 % 5.67 C
1553 22-03-2014 09:35:00 10.6 C 71 % 5.57 C
1554 22-03-2014 09:40:00 10.6 C 70 % 5.36 C
1555 22-03-2014 09:45:00 10.7 C 71 % 5.66 C
1556 22-03-2014 09:50:00 10.7 C 71 % 5.66 C
1557 22-03-2014 09:55:00 10.8 C 71 % 5.76 C
1558 22-03-2014 10:00:00 10.8 C 70 % 5.56 C
1559 22-03-2014 10:05:00 10.9 C 69 % 5.44 C
1560 22-03-2014 10:10:00 10.9 C 70 % 5.65 C
1561 22-03-2014 10:15:00 10.9 C 69 % 5.44 C
1562 22-03-2014 10:20:00 11 C 67 % 5.12 C
1563 22-03-2014 10:25:00 11 C 67 % 5.12 C
1564 22-03-2014 10:30:00 11 C 69 % 5.54 C
1565 22-03-2014 10:35:00 11.1 C 67 % 5.21 C
1566 22-03-2014 10:40:00 11.1 C 67 % 5.21 C
1567 22-03-2014 10:45:00 11.1 C 67 % 5.21 C
1568 22-03-2014 10:50:00 11.2 C 67 % 5.31 C
1569 22-03-2014 10:55:00 11.2 C 67 % 5.31 C
1570 22-03-2014 11:00:00 11.3 C 67 % 5.4 C
1571 22-03-2014 11:05:00 11.2 C 67 % 5.31 C
1572 22-03-2014 11:10:00 11.2 C 67 % 5.31 C
1573 22-03-2014 11:15:00 11.2 C 67 % 5.31 C
1574 22-03-2014 11:20:00 11.1 C 67 % 5.21 C
1575 22-03-2014 11:25:00 11 C 67 % 5.12 C
Sensor: Nr:Datum:Temp:Feuchte:Taupunkt:
Aussen-T/F 1576 22-03-2014 11:30:00 10.9 C 66 % 4.81 C
1577 22-03-2014 11:35:00 10.9 C 67 % 5.02 C
1578 22-03-2014 11:40:00 10.8 C 67 % 4.93 C
1579 22-03-2014 11:45:00 10.9 C 68 % 5.23 C
1580 22-03-2014 11:50:00 11 C 68 % 5.33 C
1581 22-03-2014 11:55:00 11.3 C 68 % 5.62 C
1582 22-03-2014 12:00:00 11.7 C 68 % 6 C
1583 22-03-2014 12:05:00 11.9 C 66 % 5.76 C
1584 22-03-2014 12:10:00 12.1 C 67 % 6.17 C
1585 22-03-2014 12:15:00 12.3 C 65 % 5.92 C
1586 22-03-2014 12:20:00 12.4 C 64 % 5.79 C
1587 22-03-2014 12:25:00 12.3 C 64 % 5.69 C
1588 22-03-2014 12:30:00 12.3 C 63 % 5.47 C
1589 22-03-2014 12:35:00 12.4 C 63 % 5.56 C
1590 22-03-2014 12:40:00 12.6 C 60 % 5.05 C
1591 22-03-2014 12:45:00 12.8 C 60 % 5.24 C
1592 22-03-2014 12:50:00 13 C 61 % 5.66 C
1593 22-03-2014 12:55:00 13.2 C 59 % 5.37 C
1594 22-03-2014 13:00:00 13.2 C 59 % 5.37 C
1595 22-03-2014 13:05:00 13.1 C 60 % 5.52 C
1596 22-03-2014 13:10:00 13.1 C 59 % 5.28 C
1597 22-03-2014 13:15:00 12.9 C 59 % 5.09 C
1598 22-03-2014 13:20:00 12.9 C 58 % 4.85 C
1599 22-03-2014 13:25:00 12.9 C 59 % 5.09 C
1600 22-03-2014 13:30:00 13 C 59 % 5.19 C
Sensor: Nr:Datum:Temp:Feuchte:Taupunkt:
Aussen-T/F 1601 22-03-2014 13:35:00 13.1 C 59 % 5.28 C
1602 22-03-2014 13:40:00 13 C 58 % 4.94 C
1603 22-03-2014 13:45:00 12.9 C 57 % 4.6 C
1604 22-03-2014 13:50:00 12.7 C 58 % 4.66 C
1605 22-03-2014 13:55:00 12.7 C 59 % 4.9 C
1606 22-03-2014 14:00:00 12.6 C 58 % 4.57 C
1607 22-03-2014 14:05:00 12.6 C 59 % 4.81 C
1608 22-03-2014 14:10:00 12.6 C 59 % 4.81 C
1609 22-03-2014 14:15:00 12.5 C 59 % 4.72 C
1610 22-03-2014 14:20:00 12.5 C 60 % 4.96 C
1611 22-03-2014 14:25:00 12.5 C 60 % 4.96 C
1612 22-03-2014 14:30:00 12.5 C 60 % 4.96 C
1613 22-03-2014 14:35:00 12.6 C 60 % 5.05 C
1614 22-03-2014 14:40:00 12.7 C 60 % 5.14 C
1615 22-03-2014 14:45:00 12.6 C 60 % 5.05 C
1616 22-03-2014 14:50:00 12.4 C 69 % 6.88 C
1617 22-03-2014 14:55:00 12.1 C 74 % 7.61 C
1618 22-03-2014 15:00:00 11.7 C 71 % 6.62 C
1619 22-03-2014 15:05:00 11.4 C 74 % 6.94 C
1620 22-03-2014 15:10:00 11.1 C 76 % 7.04 C
1621 22-03-2014 15:15:00 10.6 C 80 % 7.3 C
1622 22-03-2014 15:20:00 10.3 C 82 % 7.37 C
1623 22-03-2014 15:25:00 10.1 C 82 % 7.17 C
1624 22-03-2014 15:30:00 10 C 83 % 7.25 C
1625 22-03-2014 15:35:00 9.9 C 82 % 6.98 C
Sensor: Nr:Datum:Temp:Feuchte:Taupunkt:
Aussen-T/F 1626 22-03-2014 15:40:00 10 C 82 % 7.07 C
1627 22-03-2014 15:45:00 10.1 C 81 % 6.99 C
1628 22-03-2014 15:50:00 10.2 C 81 % 7.09 C
1629 22-03-2014 15:55:00 10.3 C 79 % 6.82 C
1630 22-03-2014 16:00:00 10.4 C 78 % 6.74 C
1631 22-03-2014 16:05:00 10.6 C 78 % 6.93 C
1632 22-03-2014 16:10:00 10.8 C 77 % 6.94 C
1633 22-03-2014 16:15:00 10.9 C 74 % 6.45 C
1634 22-03-2014 16:20:00 11 C 73 % 6.35 C
1635 22-03-2014 16:25:00 11.1 C 73 % 6.45 C
1636 22-03-2014 16:30:00 11.2 C 73 % 6.55 C
1637 22-03-2014 16:35:00 11.3 C 72 % 6.44 C
1638 22-03-2014 16:40:00 11.3 C 71 % 6.24 C
1639 22-03-2014 16:45:00 11.3 C 72 % 6.44 C
1640 22-03-2014 16:50:00 11.2 C 71 % 6.14 C
1641 22-03-2014 16:55:00 11.1 C 72 % 6.25 C
1642 22-03-2014 17:00:00 10.6 C 73 % 5.97 C
1643 22-03-2014 17:05:00 9.3 C 80 % 6.03 C
1644 22-03-2014 17:10:00 8.4 C 83 % 5.69 C
1645 22-03-2014 17:15:00 7.8 C 85 % 5.44 C
1646 22-03-2014 17:20:00 7.6 C 87 % 5.58 C
1647 22-03-2014 17:25:00 7.4 C 87 % 5.38 C
1648 22-03-2014 17:30:00 7.3 C 88 % 5.45 C
1649 22-03-2014 17:35:00 7.2 C 88 % 5.35 C
1650 22-03-2014 17:40:00 7.1 C 87 % 5.09 C
Sensor: Nr:Datum:Temp:Feuchte:Taupunkt:
Aussen-T/F 1651 22-03-2014 17:45:00 6.9 C 87 % 4.89 C
1652 22-03-2014 17:50:00 6.7 C 88 % 4.86 C
1653 22-03-2014 17:55:00 6.7 C 89 % 5.02 C
1654 22-03-2014 18:00:00 6.6 C 89 % 4.92 C
1655 22-03-2014 18:05:00 6.5 C 89 % 4.82 C
1656 22-03-2014 18:10:00 6.4 C 89 % 4.72 C
1657 22-03-2014 18:15:00 6.3 C 89 % 4.62 C
1658 22-03-2014 18:20:00 6.3 C 91 % 4.94 C
1659 22-03-2014 18:25:00 6.2 C 92 % 5 C
1660 22-03-2014 18:30:00 6.2 C 93 % 5.15 C
1661 22-03-2014 18:35:00 6.2 C 93 % 5.15 C
1662 22-03-2014 18:40:00 6.1 C 93 % 5.06 C
1663 22-03-2014 18:45:00 6.1 C 94 % 5.21 C
1664 22-03-2014 18:50:00 6.1 C 94 % 5.21 C
1665 22-03-2014 18:55:00 5.9 C 94 % 5.01 C
1666 22-03-2014 19:00:00 5.8 C 94 % 4.91 C
1667 22-03-2014 19:05:00 5.8 C 94 % 4.91 C
1668 22-03-2014 19:10:00 5.7 C 94 % 4.81 C
1669 22-03-2014 19:15:00 5.7 C 94 % 4.81 C
1670 22-03-2014 19:20:00 5.6 C 94 % 4.71 C
1671 22-03-2014 19:25:00 5.6 C 95 % 4.86 C
1672 22-03-2014 19:30:00 5.6 C 95 % 4.86 C
1673 22-03-2014 19:35:00 5.6 C 95 % 4.86 C
1674 22-03-2014 19:40:00 5.6 C 95 % 4.86 C
1675 22-03-2014 19:45:00 5.7 C 95 % 4.96 C
Sensor: Nr:Datum:Temp:Feuchte:Taupunkt:
Aussen-T/F 1676 22-03-2014 19:50:00 5.7 C 95 % 4.96 C
1677 22-03-2014 19:55:00 5.7 C 95 % 4.96 C
1678 22-03-2014 20:00:00 5.7 C 95 % 4.96 C
1679 22-03-2014 20:05:00 5.7 C 95 % 4.96 C
1680 22-03-2014 20:10:00 5.7 C 95 % 4.96 C
1681 22-03-2014 20:15:00 5.8 C 95 % 5.06 C
1682 22-03-2014 20:20:00 5.8 C 94 % 4.91 C
1683 22-03-2014 20:25:00 5.7 C 94 % 4.81 C
1684 22-03-2014 20:30:00 5.7 C 94 % 4.81 C
1685 22-03-2014 20:35:00 5.7 C 94 % 4.81 C
1686 22-03-2014 20:40:00 5.8 C 94 % 4.91 C
1687 22-03-2014 20:45:00 5.8 C 94 % 4.91 C
1688 22-03-2014 20:50:00 5.8 C 94 % 4.91 C
1689 22-03-2014 20:55:00 5.8 C 93 % 4.76 C
1690 22-03-2014 21:00:00 5.8 C 93 % 4.76 C
1691 22-03-2014 21:05:00 5.8 C 93 % 4.76 C
1692 22-03-2014 21:10:00 5.8 C 94 % 4.91 C
1693 22-03-2014 21:15:00 5.8 C 94 % 4.91 C
1694 22-03-2014 21:20:00 5.7 C 94 % 4.81 C
1695 22-03-2014 21:25:00 5.6 C 94 % 4.71 C
1696 22-03-2014 21:30:00 5.5 C 94 % 4.61 C
1697 22-03-2014 21:35:00 5.4 C 94 % 4.51 C
1698 22-03-2014 21:40:00 5.3 C 94 % 4.41 C
1699 22-03-2014 21:45:00 5.3 C 94 % 4.41 C
1700 22-03-2014 21:50:00 5.2 C 94 % 4.32 C
Sensor: Nr:Datum:Temp:Feuchte:Taupunkt:
Aussen-T/F 1701 22-03-2014 21:55:00 5 C 94 % 4.12 C
1702 22-03-2014 22:00:00 4.9 C 94 % 4.02 C
1703 22-03-2014 22:05:00 4.8 C 94 % 3.92 C
1704 22-03-2014 22:10:00 4.8 C 95 % 4.07 C
1705 22-03-2014 22:15:00 4.8 C 95 % 4.07 C
1706 22-03-2014 22:20:00 4.8 C 95 % 4.07 C
1707 22-03-2014 22:25:00 4.9 C 95 % 4.17 C
1708 22-03-2014 22:30:00 4.9 C 95 % 4.17 C
1709 22-03-2014 22:35:00 4.9 C 95 % 4.17 C
1710 22-03-2014 22:40:00 5 C 95 % 4.27 C
1711 22-03-2014 22:45:00 5 C 95 % 4.27 C
1712 22-03-2014 22:50:00 5 C 95 % 4.27 C
1713 22-03-2014 22:55:00 4.9 C 95 % 4.17 C
1714 22-03-2014 23:00:00 4.9 C 95 % 4.17 C
1715 22-03-2014 23:05:00 4.9 C 95 % 4.17 C
1716 22-03-2014 23:10:00 4.9 C 95 % 4.17 C
1717 22-03-2014 23:15:00 5 C 95 % 4.27 C
1718 22-03-2014 23:20:00 5 C 95 % 4.27 C
1719 22-03-2014 23:25:00 5.2 C 95 % 4.47 C
1720 22-03-2014 23:30:00 5.2 C 94 % 4.32 C
1721 22-03-2014 23:35:00 5.2 C 94 % 4.32 C
1722 22-03-2014 23:40:00 5.2 C 94 % 4.32 C
1723 22-03-2014 23:45:00 5.1 C 94 % 4.22 C
1724 22-03-2014 23:50:00 5 C 94 % 4.12 C
1725 22-03-2014 23:55:00 5 C 94 % 4.12 C
Sensor: Nr:Datum:Temp:Feuchte:Taupunkt:
Aussen-T/F 1726 23-03-2014 00:00:00 4.9 C 94 % 4.02 C
1727 23-03-2014 00:05:00 4.8 C 94 % 3.92 C
1728 23-03-2014 00:10:00 4.7 C 94 % 3.82 C
1729 23-03-2014 00:15:00 4.6 C 94 % 3.72 C
1730 23-03-2014 00:20:00 4.5 C 95 % 3.77 C
1731 23-03-2014 00:25:00 4.5 C 95 % 3.77 C
1732 23-03-2014 00:30:00 4.6 C 95 % 3.87 C
1733 23-03-2014 00:35:00 4.7 C 95 % 3.97 C
1734 23-03-2014 00:40:00 4.6 C 95 % 3.87 C
1735 23-03-2014 00:45:00 4.6 C 95 % 3.87 C
1736 23-03-2014 00:50:00 4.6 C 95 % 3.87 C
1737 23-03-2014 00:55:00 4.6 C 95 % 3.87 C
1738 23-03-2014 01:00:00 4.7 C 95 % 3.97 C
1739 23-03-2014 01:05:00 4.7 C 95 % 3.97 C
1740 23-03-2014 01:10:00 4.7 C 95 % 3.97 C
1741 23-03-2014 01:15:00 4.7 C 95 % 3.97 C
1742 23-03-2014 01:20:00 4.7 C 95 % 3.97 C
1743 23-03-2014 01:25:00 4.6 C 95 % 3.87 C
1744 23-03-2014 01:30:00 4.6 C 95 % 3.87 C
1745 23-03-2014 01:35:00 4.7 C 95 % 3.97 C
1746 23-03-2014 01:40:00 4.8 C 96 % 4.22 C
1747 23-03-2014 01:45:00 4.8 C 96 % 4.22 C
1748 23-03-2014 01:50:00 4.9 C 96 % 4.32 C
1749 23-03-2014 01:55:00 4.9 C 96 % 4.32 C
1750 23-03-2014 02:00:00 5 C 96 % 4.42 C
Sensor: Nr:Datum:Temp:Feuchte:Taupunkt:
Aussen-T/F 1751 23-03-2014 02:05:00 5.1 C 96 % 4.52 C
1752 23-03-2014 02:10:00 5.1 C 95 % 4.37 C
1753 23-03-2014 02:15:00 4.9 C 95 % 4.17 C
1754 23-03-2014 02:20:00 4.8 C 95 % 4.07 C
1755 23-03-2014 02:25:00 4.7 C 95 % 3.97 C
1756 23-03-2014 02:30:00 4.6 C 95 % 3.87 C
1757 23-03-2014 02:35:00 4.6 C 95 % 3.87 C
1758 23-03-2014 02:40:00 4.4 C 95 % 3.67 C
1759 23-03-2014 02:45:00 4.3 C 95 % 3.57 C
1760 23-03-2014 02:50:00 4.3 C 95 % 3.57 C
1761 23-03-2014 02:55:00 4.2 C 95 % 3.47 C
1762 23-03-2014 03:00:00 4 C 95 % 3.27 C
1763 23-03-2014 03:05:00 3.9 C 95 % 3.17 C
1764 23-03-2014 03:10:00 3.8 C 95 % 3.07 C
1765 23-03-2014 03:15:00 3.8 C 96 % 3.22 C
1766 23-03-2014 03:20:00 4 C 96 % 3.42 C
1767 23-03-2014 03:25:00 4.2 C 96 % 3.62 C
1768 23-03-2014 03:30:00 4.3 C 96 % 3.72 C
1769 23-03-2014 03:35:00 4.4 C 96 % 3.82 C
1770 23-03-2014 03:40:00 4.6 C 96 % 4.02 C
1771 23-03-2014 03:45:00 4.7 C 96 % 4.12 C
1772 23-03-2014 03:50:00 4.7 C 97 % 4.27 C
1773 23-03-2014 03:55:00 4.8 C 97 % 4.37 C
1774 23-03-2014 04:00:00 4.8 C 96 % 4.22 C
1775 23-03-2014 04:05:00 4.8 C 96 % 4.22 C
Sensor: Nr:Datum:Temp:Feuchte:Taupunkt:
Aussen-T/F 1776 23-03-2014 04:10:00 4.9 C 96 % 4.32 C
1777 23-03-2014 04:15:00 4.9 C 96 % 4.32 C
1778 23-03-2014 04:20:00 4.9 C 96 % 4.32 C
1779 23-03-2014 04:25:00 4.9 C 96 % 4.32 C
1780 23-03-2014 04:30:00 5 C 96 % 4.42 C
1781 23-03-2014 04:35:00 5.1 C 96 % 4.52 C
1782 23-03-2014 04:40:00 5.2 C 95 % 4.47 C
1783 23-03-2014 04:45:00 5.2 C 95 % 4.47 C
1784 23-03-2014 04:50:00 5.2 C 94 % 4.32 C
1785 23-03-2014 04:55:00 5.2 C 94 % 4.32 C
1786 23-03-2014 05:00:00 5.3 C 93 % 4.26 C
1787 23-03-2014 05:05:00 5.3 C 93 % 4.26 C
1788 23-03-2014 05:10:00 5.2 C 93 % 4.16 C
1789 23-03-2014 05:15:00 5.2 C 92 % 4.01 C
1790 23-03-2014 05:20:00 5.2 C 92 % 4.01 C
1791 23-03-2014 05:25:00 5.2 C 92 % 4.01 C
1792 23-03-2014 05:30:00 5.2 C 92 % 4.01 C
1793 23-03-2014 05:35:00 5.2 C 92 % 4.01 C
1794 23-03-2014 05:40:00 5 C 92 % 3.81 C
1795 23-03-2014 05:45:00 4.9 C 92 % 3.71 C
1796 23-03-2014 05:50:00 4.8 C 92 % 3.61 C
1797 23-03-2014 05:55:00 4.8 C 93 % 3.77 C
1798 23-03-2014 06:00:00 4.8 C 92 % 3.61 C
1799 23-03-2014 06:05:00 4.7 C 92 % 3.51 C
1800 23-03-2014 06:10:00 4.5 C 92 % 3.32 C
Sensor: Nr:Datum:Temp:Feuchte:Taupunkt:
Aussen-T/F 1801 23-03-2014 06:15:00 4.3 C 92 % 3.12 C
1802 23-03-2014 06:20:00 4.2 C 93 % 3.17 C
1803 23-03-2014 06:25:00 4 C 93 % 2.97 C
1804 23-03-2014 06:30:00 3.9 C 93 % 2.87 C
1805 23-03-2014 06:35:00 3.8 C 93 % 2.77 C
1806 23-03-2014 06:40:00 3.7 C 94 % 2.83 C
1807 23-03-2014 06:45:00 3.7 C 94 % 2.83 C
1808 23-03-2014 06:50:00 3.6 C 94 % 2.73 C
1809 23-03-2014 06:55:00 3.6 C 94 % 2.73 C
1810 23-03-2014 07:00:00 3.6 C 95 % 2.88 C
1811 23-03-2014 07:05:00 3.6 C 95 % 2.88 C
1812 23-03-2014 07:10:00 3.6 C 95 % 2.88 C
1813 23-03-2014 07:15:00 3.7 C 95 % 2.98 C
1814 23-03-2014 07:20:00 3.7 C 95 % 2.98 C
1815 23-03-2014 07:25:00 3.7 C 95 % 2.98 C
1816 23-03-2014 07:30:00 3.9 C 95 % 3.17 C
1817 23-03-2014 07:35:00 4.1 C 95 % 3.37 C
1818 23-03-2014 07:40:00 4.2 C 95 % 3.47 C
1819 23-03-2014 07:45:00 4.4 C 94 % 3.52 C
1820 23-03-2014 07:50:00 4.6 C 93 % 3.57 C
1821 23-03-2014 07:55:00 4.8 C 92 % 3.61 C
1822 23-03-2014 08:00:00 4.9 C 92 % 3.71 C
1823 23-03-2014 08:05:00 4.9 C 91 % 3.56 C
1824 23-03-2014 08:10:00 5 C 91 % 3.66 C
1825 23-03-2014 08:15:00 5.1 C 91 % 3.76 C
Sensor: Nr:Datum:Temp:Feuchte:Taupunkt:
Aussen-T/F 1826 23-03-2014 08:20:00 5.2 C 91 % 3.85 C
1827 23-03-2014 08:25:00 5.3 C 90 % 3.8 C
1828 23-03-2014 08:30:00 5.4 C 89 % 3.74 C
1829 23-03-2014 08:35:00 5.4 C 87 % 3.41 C
1830 23-03-2014 08:40:00 5.4 C 87 % 3.41 C
1831 23-03-2014 08:45:00 5.4 C 84 % 2.92 C
1832 23-03-2014 08:50:00 5.5 C 85 % 3.18 C
1833 23-03-2014 08:55:00 5.6 C 85 % 3.28 C
1834 23-03-2014 09:00:00 5.6 C 85 % 3.28 C
1835 23-03-2014 09:05:00 5.6 C 84 % 3.12 C
1836 23-03-2014 09:10:00 5.7 C 84 % 3.21 C
1837 23-03-2014 09:15:00 5.8 C 82 % 2.97 C
1838 23-03-2014 09:20:00 5.8 C 83 % 3.14 C
1839 23-03-2014 09:25:00 5.8 C 82 % 2.97 C
1840 23-03-2014 09:30:00 5.9 C 81 % 2.9 C
1841 23-03-2014 09:35:00 6.1 C 81 % 3.09 C
1842 23-03-2014 09:40:00 6.1 C 80 % 2.92 C
1843 23-03-2014 09:45:00 6.2 C 79 % 2.84 C
1844 23-03-2014 09:50:00 6.2 C 77 % 2.48 C
1845 23-03-2014 09:55:00 6.3 C 77 % 2.57 C
1846 23-03-2014 10:00:00 6.4 C 76 % 2.49 C
1847 23-03-2014 10:05:00 6.6 C 77 % 2.86 C
1848 23-03-2014 10:10:00 6.8 C 76 % 2.87 C
1849 23-03-2014 10:15:00 7.1 C 76 % 3.16 C
1850 23-03-2014 10:20:00 7.1 C 76 % 3.16 C
Sensor: Nr:Datum:Temp:Feuchte:Taupunkt:
Aussen-T/F 1851 23-03-2014 10:25:00 7.2 C 76 % 3.26 C
1852 23-03-2014 10:30:00 7.2 C 75 % 3.07 C
1853 23-03-2014 10:35:00 7.2 C 75 % 3.07 C
1854 23-03-2014 10:40:00 7.2 C 74 % 2.89 C
1855 23-03-2014 10:45:00 7.1 C 75 % 2.98 C
1856 23-03-2014 10:50:00 6.9 C 75 % 2.78 C
1857 23-03-2014 10:55:00 6.8 C 74 % 2.5 C
1858 23-03-2014 11:00:00 6.8 C 75 % 2.69 C
1859 23-03-2014 11:05:00 6.8 C 74 % 2.5 C
1860 23-03-2014 11:10:00 6.9 C 72 % 2.21 C
1861 23-03-2014 11:15:00 7.1 C 71 % 2.21 C
1862 23-03-2014 11:20:00 7.1 C 74 % 2.79 C
1863 23-03-2014 11:25:00 7.2 C 72 % 2.5 C
1864 23-03-2014 11:30:00 7.2 C 72 % 2.5 C
1865 23-03-2014 11:35:00 7.3 C 71 % 2.4 C
1866 23-03-2014 11:40:00 7.4 C 72 % 2.69 C
1867 23-03-2014 11:45:00 7.3 C 71 % 2.4 C
1868 23-03-2014 11:50:00 7.3 C 72 % 2.6 C
1869 23-03-2014 11:55:00 7.2 C 70 % 2.11 C
1870 23-03-2014 12:00:00 7.3 C 72 % 2.6 C
1871 23-03-2014 12:05:00 7.3 C 71 % 2.4 C
1872 23-03-2014 12:10:00 7.6 C 70 % 2.49 C
1873 23-03-2014 12:15:00 7.9 C 68 % 2.37 C
1874 23-03-2014 12:20:00 8.1 C 68 % 2.56 C
1875 23-03-2014 12:25:00 8.3 C 67 % 2.54 C
Sensor: Nr:Datum:Temp:Feuchte:Taupunkt:
Aussen-T/F 1876 23-03-2014 12:30:00 8.6 C 67 % 2.83 C
1877 23-03-2014 12:35:00 8.8 C 64 % 2.38 C
1878 23-03-2014 12:40:00 8.7 C 65 % 2.5 C
1879 23-03-2014 12:45:00 8.8 C 62 % 1.93 C
1880 23-03-2014 12:50:00 8.9 C 62 % 2.03 C
1881 23-03-2014 12:55:00 8.7 C 62 % 1.84 C
1882 23-03-2014 13:00:00 8.4 C 65 % 2.21 C
1883 23-03-2014 13:05:00 8.5 C 65 % 2.31 C
1884 23-03-2014 13:10:00 8.6 C 64 % 2.19 C
1885 23-03-2014 13:15:00 8.8 C 63 % 2.16 C
1886 23-03-2014 13:20:00 8.9 C 63 % 2.25 C
1887 23-03-2014 13:25:00 8.8 C 63 % 2.16 C
1888 23-03-2014 13:30:00 8.8 C 63 % 2.16 C
1889 23-03-2014 13:35:00 8.7 C 63 % 2.06 C
1890 23-03-2014 13:40:00 8.7 C 64 % 2.28 C
1891 23-03-2014 13:45:00 8.7 C 62 % 1.84 C
1892 23-03-2014 13:50:00 8.7 C 62 % 1.84 C
1893 23-03-2014 13:55:00 8.7 C 61 % 1.61 C
1894 23-03-2014 14:00:00 8.7 C 61 % 1.61 C
1895 23-03-2014 14:05:00 8.8 C 62 % 1.93 C
1896 23-03-2014 14:10:00 8.8 C 62 % 1.93 C
1897 23-03-2014 14:15:00 8.8 C 62 % 1.93 C
1898 23-03-2014 14:20:00 8.8 C 64 % 2.38 C
1899 23-03-2014 14:25:00 8.8 C 63 % 2.16 C
1900 23-03-2014 14:30:00 8.8 C 64 % 2.38 C
Sensor: Nr:Datum:Temp:Feuchte:Taupunkt:
Aussen-T/F 1901 23-03-2014 14:35:00 8.9 C 64 % 2.47 C
1902 23-03-2014 14:40:00 9 C 63 % 2.35 C
1903 23-03-2014 14:45:00 9.2 C 63 % 2.53 C
1904 23-03-2014 14:50:00 9.1 C 63 % 2.44 C
1905 23-03-2014 14:55:00 9 C 63 % 2.35 C
1906 23-03-2014 15:00:00 9 C 63 % 2.35 C
1907 23-03-2014 15:05:00 9 C 61 % 1.89 C
1908 23-03-2014 15:10:00 8.9 C 63 % 2.25 C
1909 23-03-2014 15:15:00 8.9 C 63 % 2.25 C
1910 23-03-2014 15:20:00 8.8 C 62 % 1.93 C
1911 23-03-2014 15:25:00 8.8 C 62 % 1.93 C
1912 23-03-2014 15:30:00 8.7 C 62 % 1.84 C
1913 23-03-2014 15:35:00 8.7 C 62 % 1.84 C
1914 23-03-2014 15:40:00 8.7 C 62 % 1.84 C
1915 23-03-2014 15:45:00 8.8 C 62 % 1.93 C
1916 23-03-2014 15:50:00 8.9 C 62 % 2.03 C
1917 23-03-2014 15:55:00 8.9 C 63 % 2.25 C
1918 23-03-2014 16:00:00 8.9 C 62 % 2.03 C
1919 23-03-2014 16:05:00 8.8 C 63 % 2.16 C
1920 23-03-2014 16:10:00 8.8 C 64 % 2.38 C
1921 23-03-2014 16:15:00 8.7 C 64 % 2.28 C
1922 23-03-2014 16:20:00 8.7 C 64 % 2.28 C
1923 23-03-2014 16:25:00 8.7 C 65 % 2.5 C
1924 23-03-2014 16:30:00 8.7 C 65 % 2.5 C
1925 23-03-2014 16:35:00 8.7 C 66 % 2.71 C
Sensor: Nr:Datum:Temp:Feuchte:Taupunkt:
Aussen-T/F 1926 23-03-2014 16:40:00 8.7 C 65 % 2.5 C
1927 23-03-2014 16:45:00 8.7 C 65 % 2.5 C
1928 23-03-2014 16:50:00 8.7 C 65 % 2.5 C
1929 23-03-2014 16:55:00 8.7 C 66 % 2.71 C
1930 23-03-2014 17:00:00 8.6 C 65 % 2.4 C
1931 23-03-2014 17:05:00 8.6 C 67 % 2.83 C
1932 23-03-2014 17:10:00 8.6 C 66 % 2.62 C
1933 23-03-2014 17:15:00 8.6 C 66 % 2.62 C
1934 23-03-2014 17:20:00 8.5 C 67 % 2.73 C
1935 23-03-2014 17:25:00 8.4 C 66 % 2.43 C
1936 23-03-2014 17:30:00 8.4 C 67 % 2.64 C
1937 23-03-2014 17:35:00 8.3 C 67 % 2.54 C
1938 23-03-2014 17:40:00 8.3 C 67 % 2.54 C
1939 23-03-2014 17:45:00 8.3 C 68 % 2.75 C
1940 23-03-2014 17:50:00 8.2 C 68 % 2.66 C
1941 23-03-2014 17:55:00 8.2 C 68 % 2.66 C
1942 23-03-2014 18:00:00 8.3 C 68 % 2.75 C
1943 23-03-2014 18:05:00 8.3 C 69 % 2.96 C
1944 23-03-2014 18:10:00 8.3 C 70 % 3.16 C
1945 23-03-2014 18:15:00 8.4 C 69 % 3.05 C
1946 23-03-2014 18:20:00 8.4 C 69 % 3.05 C
1947 23-03-2014 18:25:00 8.4 C 69 % 3.05 C
1948 23-03-2014 18:30:00 8.3 C 73 % 3.75 C
1949 23-03-2014 18:35:00 8.1 C 72 % 3.37 C
1950 23-03-2014 18:40:00 7.9 C 74 % 3.56 C
Sensor: Nr:Datum:Temp:Feuchte:Taupunkt:
Aussen-T/F 1951 23-03-2014 18:45:00 7.8 C 71 % 2.88 C
1952 23-03-2014 18:50:00 7.6 C 76 % 3.65 C
1953 23-03-2014 18:55:00 7.3 C 76 % 3.36 C
1954 23-03-2014 19:00:00 7 C 78 % 3.43 C
1955 23-03-2014 19:05:00 6.8 C 78 % 3.24 C
1956 23-03-2014 19:10:00 6.7 C 78 % 3.14 C
1957 23-03-2014 19:15:00 6.7 C 79 % 3.32 C
1958 23-03-2014 19:20:00 6.7 C 80 % 3.5 C
1959 23-03-2014 19:25:00 6.5 C 80 % 3.31 C
1960 23-03-2014 19:30:00 6.3 C 79 % 2.93 C
1961 23-03-2014 19:35:00 6.3 C 77 % 2.57 C
1962 23-03-2014 19:40:00 6.3 C 79 % 2.93 C
1963 23-03-2014 19:45:00 6.3 C 79 % 2.93 C
1964 23-03-2014 19:50:00 6.2 C 79 % 2.84 C
1965 23-03-2014 19:55:00 6 C 80 % 2.82 C
1966 23-03-2014 20:00:00 5.8 C 81 % 2.8 C
1967 23-03-2014 20:05:00 5.8 C 81 % 2.8 C
1968 23-03-2014 20:10:00 5.7 C 80 % 2.53 C
1969 23-03-2014 20:15:00 5.7 C 82 % 2.87 C
1970 23-03-2014 20:20:00 5.7 C 82 % 2.87 C
1971 23-03-2014 20:25:00 5.7 C 82 % 2.87 C
1972 23-03-2014 20:30:00 5.8 C 81 % 2.8 C
1973 23-03-2014 20:35:00 5.8 C 82 % 2.97 C
1974 23-03-2014 20:40:00 5.8 C 81 % 2.8 C
1975 23-03-2014 20:45:00 5.8 C 81 % 2.8 C
Sensor: Nr:Datum:Temp:Feuchte:Taupunkt:
Aussen-T/F 1976 23-03-2014 20:50:00 5.7 C 82 % 2.87 C
1977 23-03-2014 20:55:00 5.7 C 82 % 2.87 C
1978 23-03-2014 21:00:00 5.6 C 82 % 2.78 C
1979 23-03-2014 21:05:00 5.4 C 82 % 2.58 C
1980 23-03-2014 21:10:00 5.3 C 83 % 2.65 C
1981 23-03-2014 21:15:00 5.2 C 83 % 2.56 C
1982 23-03-2014 21:20:00 4.9 C 83 % 2.26 C
1983 23-03-2014 21:25:00 4.8 C 84 % 2.33 C
1984 23-03-2014 21:30:00 4.6 C 85 % 2.3 C
1985 23-03-2014 21:35:00 4.4 C 85 % 2.11 C
1986 23-03-2014 21:40:00 4.2 C 86 % 2.07 C
1987 23-03-2014 21:45:00 4.1 C 86 % 1.97 C
1988 23-03-2014 21:50:00 4.1 C 86 % 1.97 C
1989 23-03-2014 21:55:00 4 C 86 % 1.88 C
1990 23-03-2014 22:00:00 3.9 C 87 % 1.94 C
1991 23-03-2014 22:05:00 3.9 C 87 % 1.94 C
1992 23-03-2014 22:10:00 3.8 C 87 % 1.84 C
1993 23-03-2014 22:15:00 3.7 C 87 % 1.74 C
1994 23-03-2014 22:20:00 3.6 C 87 % 1.64 C
1995 23-03-2014 22:25:00 3.5 C 89 % 1.86 C
1996 23-03-2014 22:30:00 3.4 C 89 % 1.76 C
1997 23-03-2014 22:35:00 3.3 C 89 % 1.67 C
1998 23-03-2014 22:40:00 3.2 C 90 % 1.72 C
1999 23-03-2014 22:45:00 3.1 C 90 % 1.62 C
2000 23-03-2014 22:50:00 3 C 90 % 1.52 C
Sensor: Nr:Datum:Temp:Feuchte:Taupunkt:
Aussen-T/F 2001 23-03-2014 22:55:00 2.9 C 90 % 1.43 C
2002 23-03-2014 23:00:00 2.9 C 91 % 1.58 C
2003 23-03-2014 23:05:00 2.8 C 90 % 1.33 C
2004 23-03-2014 23:10:00 2.8 C 91 % 1.48 C
2005 23-03-2014 23:15:00 2.7 C 91 % 1.38 C
2006 23-03-2014 23:20:00 2.7 C 91 % 1.38 C
2007 23-03-2014 23:25:00 2.7 C 91 % 1.38 C
2008 23-03-2014 23:30:00 2.7 C 92 % 1.53 C
2009 23-03-2014 23:35:00 2.7 C 92 % 1.53 C
2010 23-03-2014 23:40:00 2.7 C 92 % 1.53 C
2011 23-03-2014 23:45:00 2.8 C 92 % 1.63 C
2012 23-03-2014 23:50:00 2.8 C 92 % 1.63 C
2013 23-03-2014 23:55:00 2.9 C 92 % 1.73 C

Legende:
   Min
   Max


Maximal/Minimal-Werte vom 17.03.2014 - 23.03.2014

Sensor Min Max Avg
Temp
(Aussen-T/F)
2.7 °C
23-03-2014  23:15:00
22.1 °C
20-03-2014  16:40:00
10.32 °C
Feuchte
(Aussen-T/F)
30 %
20-03-2014  16:50:00
97 %
23-03-2014  03:50:00
76.26 %
Taupunkt
(Aussen-T/F)
1.33 C
23-03-2014  23:05:00
9.07 C
17-03-2014  13:35:00
5.99 C

Die Daten stammen von einer Davis Vantage Pro 2 Wetter-Station und werden unter Linux mit der Software wview2wettercgi und aufbereitet. Alle Angaben erfolgen ohne Gewähr für ihre Vollständigkeit oder Richtigkeit.
Kontakt: Rainer Krienke krienke@uni-koblenz.de . Meine Webseiten an der Uni Koblenz oder privat.
Version: $Revision: 0.78 $